DLH492 EDDF-CYVR
Flight info
| Callsign | DLH492 |
|---|---|
| Flight time | 10h 6m |
| Altitude | 34000 |
| Route | EDDF/25C MARUN7F MARUN Y152 ARPEG Z850 ABILU DCT ATPAQ DCT OMIMA DCT ATNAK DCT GUNPA DCT 65N010W 6730N02000W 70N030W 72N040W 73N060W DCT MEDPA DCT 71N080W 6830N09000W 65N100W 60N110W 55N116W DCT MERYT DCT BOOTH LIONN4 CYVR/08R |
| Aircraft | A343/H-V/N |
Departure
| Time | 2026-05-07 02:39 |
|---|---|
| Airport | Frankfurt Main Airport (EDDF) |
Arrival
| Time | 2026-05-07 12:45 |
|---|---|
| Airport | Vancouver International Airport (CYVR) |
| Time | Latitude | Longitude | Altitude | Speed | Heading |
|---|---|---|---|---|---|
| 2026-05-07 02:12 | 50.04751 | 8.57127 | 497 ft | 0 kts | 120° |
| 2026-05-07 02:26 | 50.04751 | 8.57126 | 360 ft | 1 kts | 120° |
| 2026-05-07 02:26 | 50.04763 | 8.57095 | 368 ft | 4 kts | 122° |
| 2026-05-07 02:26 | 50.04778 | 8.57060 | 368 ft | 4 kts | 135° |
| 2026-05-07 02:27 | 50.04798 | 8.57040 | 366 ft | 4 kts | 187° |
| 2026-05-07 02:27 | 50.04794 | 8.57034 | 366 ft | 4 kts | 205° |
| 2026-05-07 02:27 | 50.04778 | 8.57023 | 368 ft | 0 kts | 205° |
| 2026-05-07 02:31 | 50.04777 | 8.57022 | 368 ft | 1 kts | 205° |
| 2026-05-07 02:31 | 50.04762 | 8.57011 | 368 ft | 4 kts | 205° |
| 2026-05-07 02:31 | 50.04727 | 8.56986 | 368 ft | 7 kts | 205° |
| 2026-05-07 02:32 | 50.04676 | 8.56950 | 360 ft | 9 kts | 205° |
| 2026-05-07 02:32 | 50.04609 | 8.56912 | 365 ft | 11 kts | 195° |
| 2026-05-07 02:32 | 50.04536 | 8.56885 | 363 ft | 10 kts | 193° |
| 2026-05-07 02:32 | 50.04456 | 8.56856 | 369 ft | 13 kts | 191° |
| 2026-05-07 02:33 | 50.04360 | 8.56831 | 368 ft | 15 kts | 191° |
| 2026-05-07 02:33 | 50.04280 | 8.56833 | 370 ft | 8 kts | 145° |
| 2026-05-07 02:33 | 50.04278 | 8.56904 | 369 ft | 8 kts | 74° |
| 2026-05-07 02:33 | 50.04298 | 8.57004 | 368 ft | 11 kts | 73° |
| 2026-05-07 02:34 | 50.04326 | 8.57123 | 373 ft | 12 kts | 65° |
| 2026-05-07 02:34 | 50.04363 | 8.57269 | 369 ft | 17 kts | 69° |
| 2026-05-07 02:34 | 50.04409 | 8.57463 | 369 ft | 21 kts | 70° |
| 2026-05-07 02:34 | 50.04460 | 8.57673 | 374 ft | 21 kts | 69° |
| 2026-05-07 02:35 | 50.04512 | 8.57891 | 374 ft | 22 kts | 70° |
| 2026-05-07 02:35 | 50.04565 | 8.58113 | 371 ft | 22 kts | 70° |
| 2026-05-07 02:35 | 50.04616 | 8.58324 | 375 ft | 19 kts | 70° |
| 2026-05-07 02:35 | 50.04654 | 8.58484 | 376 ft | 12 kts | 70° |
| 2026-05-07 02:36 | 50.04635 | 8.58559 | 376 ft | 8 kts | 147° |
| 2026-05-07 02:36 | 50.04596 | 8.58586 | 376 ft | 0 kts | 159° |
| 2026-05-07 02:36 | 50.04596 | 8.58587 | 376 ft | 0 kts | 159° |
| 2026-05-07 02:37 | 50.04596 | 8.58586 | 376 ft | 0 kts | 159° |
| 2026-05-07 02:37 | 50.04596 | 8.58587 | 376 ft | 0 kts | 159° |
| 2026-05-07 02:37 | 50.04582 | 8.58595 | 369 ft | 6 kts | 159° |
| 2026-05-07 02:38 | 50.04534 | 8.58623 | 378 ft | 7 kts | 162° |
| 2026-05-07 02:38 | 50.04492 | 8.58604 | 378 ft | 6 kts | 227° |
| 2026-05-07 02:38 | 50.04473 | 8.58532 | 376 ft | 14 kts | 250° |
| 2026-05-07 02:38 | 50.04373 | 8.58111 | 373 ft | 77 kts | 249° |
| 2026-05-07 02:39 | 50.04106 | 8.56991 | 372 ft | 141 kts | 249° |
| 2026-05-07 02:39 | 50.03710 | 8.55333 | 656 ft | 171 kts | 247° |
| 2026-05-07 02:39 | 50.03289 | 8.53578 | 1540 ft | 176 kts | 246° |
| 2026-05-07 02:39 | 50.02838 | 8.51716 | 2138 ft | 192 kts | 250° |
| 2026-05-07 02:40 | 50.02726 | 8.49644 | 2852 ft | 200 kts | 277° |
| 2026-05-07 02:40 | 50.02938 | 8.47384 | 3281 ft | 220 kts | 275° |
| 2026-05-07 02:40 | 50.03133 | 8.44978 | 3938 ft | 227 kts | 275° |
| 2026-05-07 02:40 | 50.03543 | 8.42563 | 4515 ft | 236 kts | 294° |
| 2026-05-07 02:41 | 50.04605 | 8.40529 | 4948 ft | 253 kts | 317° |
| 2026-05-07 02:41 | 50.06029 | 8.38803 | 5399 ft | 264 kts | 321° |
| 2026-05-07 02:41 | 50.07521 | 8.37087 | 5982 ft | 269 kts | 321° |
| 2026-05-07 02:41 | 50.09031 | 8.35339 | 6547 ft | 271 kts | 320° |
| 2026-05-07 02:42 | 50.10614 | 8.33710 | 7078 ft | 277 kts | 331° |
| 2026-05-07 02:42 | 50.12498 | 8.32971 | 7608 ft | 287 kts | 357° |
| 2026-05-07 02:42 | 50.14494 | 8.33493 | 8164 ft | 293 kts | 14° |
| 2026-05-07 02:42 | 50.16429 | 8.34420 | 8724 ft | 296 kts | 15° |
| 2026-05-07 02:43 | 50.18401 | 8.35394 | 9289 ft | 298 kts | 15° |
| 2026-05-07 02:43 | 50.20397 | 8.36364 | 9834 ft | 302 kts | 15° |
| 2026-05-07 02:43 | 50.22436 | 8.37344 | 10138 ft | 313 kts | 15° |
| 2026-05-07 02:43 | 50.24563 | 8.38357 | 10382 ft | 326 kts | 15° |
| 2026-05-07 02:44 | 50.26775 | 8.39409 | 10620 ft | 338 kts | 15° |
| 2026-05-07 02:44 | 50.29066 | 8.40496 | 10855 ft | 350 kts | 15° |
| 2026-05-07 02:44 | 50.31425 | 8.41691 | 11093 ft | 360 kts | 18° |
| 2026-05-07 02:44 | 50.33810 | 8.43014 | 11459 ft | 366 kts | 18° |
| 2026-05-07 02:45 | 50.36218 | 8.44354 | 11894 ft | 370 kts | 18° |
| 2026-05-07 02:45 | 50.38664 | 8.45705 | 12345 ft | 374 kts | 18° |
| 2026-05-07 02:45 | 50.41129 | 8.47061 | 12867 ft | 377 kts | 18° |
| 2026-05-07 02:45 | 50.43621 | 8.48429 | 13370 ft | 380 kts | 18° |
| 2026-05-07 02:46 | 50.46122 | 8.49801 | 13842 ft | 382 kts | 18° |
| 2026-05-07 02:46 | 50.48613 | 8.51158 | 14232 ft | 385 kts | 17° |
| 2026-05-07 02:46 | 50.51183 | 8.52404 | 14625 ft | 388 kts | 15° |
| 2026-05-07 02:46 | 50.53783 | 8.53612 | 15010 ft | 390 kts | 15° |
| 2026-05-07 02:47 | 50.56396 | 8.54836 | 15426 ft | 393 kts | 15° |
| 2026-05-07 02:47 | 50.59024 | 8.56081 | 15808 ft | 397 kts | 15° |
| 2026-05-07 02:47 | 50.61676 | 8.57344 | 16221 ft | 400 kts | 15° |
| 2026-05-07 02:47 | 50.64354 | 8.58626 | 16667 ft | 402 kts | 15° |
| 2026-05-07 02:48 | 50.67039 | 8.59916 | 17104 ft | 405 kts | 15° |
| 2026-05-07 02:48 | 50.69744 | 8.61218 | 17520 ft | 408 kts | 15° |
| 2026-05-07 02:48 | 50.72472 | 8.62534 | 17969 ft | 411 kts | 15° |
| 2026-05-07 02:48 | 50.75218 | 8.63849 | 18357 ft | 414 kts | 14° |
| 2026-05-07 02:49 | 50.78043 | 8.64683 | 18743 ft | 414 kts | 0° |
| 2026-05-07 02:49 | 50.80894 | 8.64356 | 19147 ft | 410 kts | 343° |
| 2026-05-07 02:49 | 50.83550 | 8.62810 | 19535 ft | 405 kts | 327° |
| 2026-05-07 02:49 | 50.85789 | 8.60257 | 19943 ft | 400 kts | 313° |
| 2026-05-07 02:50 | 50.87749 | 8.57129 | 20337 ft | 399 kts | 308° |
| 2026-05-07 02:50 | 50.89582 | 8.53813 | 20752 ft | 400 kts | 306° |
| 2026-05-07 02:50 | 50.91357 | 8.50409 | 21120 ft | 402 kts | 305° |
| 2026-05-07 02:50 | 50.93126 | 8.46957 | 21532 ft | 404 kts | 306° |
| 2026-05-07 02:51 | 50.94902 | 8.43510 | 21934 ft | 406 kts | 306° |
| 2026-05-07 02:51 | 50.96704 | 8.40048 | 22318 ft | 408 kts | 306° |
| 2026-05-07 02:51 | 50.98521 | 8.36592 | 22686 ft | 411 kts | 307° |
| 2026-05-07 02:51 | 51.00387 | 8.33184 | 23051 ft | 415 kts | 311° |
| 2026-05-07 02:52 | 51.02593 | 8.30180 | 23397 ft | 421 kts | 322° |
| 2026-05-07 02:52 | 51.05051 | 8.27618 | 23723 ft | 424 kts | 327° |
| 2026-05-07 02:52 | 51.07585 | 8.25225 | 24047 ft | 425 kts | 328° |
| 2026-05-07 02:52 | 51.10170 | 8.22912 | 24341 ft | 428 kts | 329° |
| 2026-05-07 02:53 | 51.12788 | 8.20618 | 24648 ft | 430 kts | 330° |
| 2026-05-07 02:53 | 51.15418 | 8.18326 | 24947 ft | 431 kts | 330° |
| 2026-05-07 02:53 | 51.18054 | 8.16017 | 25275 ft | 433 kts | 329° |
| 2026-05-07 02:53 | 51.20665 | 8.13712 | 25598 ft | 435 kts | 329° |
| 2026-05-07 02:54 | 51.23312 | 8.11358 | 25914 ft | 437 kts | 329° |
| 2026-05-07 02:54 | 51.25970 | 8.08981 | 26233 ft | 439 kts | 331° |
| 2026-05-07 02:54 | 51.28638 | 8.06587 | 26518 ft | 440 kts | 331° |
| 2026-05-07 02:54 | 51.31312 | 8.04183 | 26810 ft | 441 kts | 330° |
| 2026-05-07 02:55 | 51.33987 | 8.01773 | 27184 ft | 441 kts | 330° |
| 2026-05-07 02:55 | 51.36669 | 7.99356 | 27457 ft | 443 kts | 330° |
| 2026-05-07 02:55 | 51.39436 | 7.97147 | 27726 ft | 445 kts | 338° |
| 2026-05-07 02:55 | 51.42379 | 7.95590 | 27973 ft | 447 kts | 347° |
| 2026-05-07 02:56 | 51.45447 | 7.94694 | 28248 ft | 448 kts | 352° |
| 2026-05-07 02:56 | 51.48547 | 7.94023 | 28530 ft | 450 kts | 353° |
| 2026-05-07 02:56 | 51.51665 | 7.93458 | 28791 ft | 452 kts | 354° |
| 2026-05-07 02:56 | 51.54749 | 7.92947 | 29069 ft | 453 kts | 354° |
| 2026-05-07 02:57 | 51.57880 | 7.92441 | 29510 ft | 450 kts | 354° |
| 2026-05-07 02:57 | 51.61039 | 7.91924 | 29822 ft | 451 kts | 354° |
| 2026-05-07 02:57 | 51.64131 | 7.91407 | 30056 ft | 453 kts | 354° |
| 2026-05-07 02:57 | 51.67316 | 7.90862 | 30180 ft | 456 kts | 354° |
| 2026-05-07 02:58 | 51.70445 | 7.90320 | 30325 ft | 459 kts | 354° |
| 2026-05-07 02:58 | 51.73628 | 7.89763 | 30522 ft | 461 kts | 353° |
| 2026-05-07 02:58 | 51.76830 | 7.89200 | 30668 ft | 464 kts | 353° |
| 2026-05-07 02:58 | 51.80056 | 7.88632 | 30766 ft | 469 kts | 353° |
| 2026-05-07 02:59 | 51.86596 | 7.87479 | 31050 ft | 474 kts | 353° |
| 2026-05-07 02:59 | 51.89875 | 7.86901 | 31326 ft | 474 kts | 353° |
| 2026-05-07 02:59 | 51.93168 | 7.86320 | 31514 ft | 476 kts | 353° |
| 2026-05-07 03:00 | 51.96457 | 7.85737 | 31853 ft | 475 kts | 353° |
| 2026-05-07 03:00 | 51.99740 | 7.85154 | 32208 ft | 474 kts | 353° |
| 2026-05-07 03:00 | 52.03023 | 7.84569 | 32425 ft | 476 kts | 353° |
| 2026-05-07 03:00 | 52.06318 | 7.83982 | 32633 ft | 478 kts | 353° |
| 2026-05-07 03:01 | 52.09621 | 7.83394 | 32906 ft | 477 kts | 353° |
| 2026-05-07 03:01 | 52.12934 | 7.82804 | 33167 ft | 478 kts | 353° |
| 2026-05-07 03:01 | 52.16240 | 7.82216 | 33495 ft | 476 kts | 353° |
| 2026-05-07 03:01 | 52.19492 | 7.81635 | 33767 ft | 476 kts | 353° |
| 2026-05-07 03:02 | 52.22786 | 7.81047 | 33985 ft | 476 kts | 353° |
| 2026-05-07 03:02 | 52.26081 | 7.80457 | 34188 ft | 477 kts | 353° |
| 2026-05-07 03:02 | 52.29289 | 7.79881 | 34351 ft | 478 kts | 353° |
| 2026-05-07 03:02 | 52.32598 | 7.79287 | 34530 ft | 479 kts | 353° |
| 2026-05-07 03:03 | 52.35909 | 7.78691 | 34742 ft | 479 kts | 353° |
| 2026-05-07 03:03 | 52.39218 | 7.78095 | 34948 ft | 479 kts | 353° |
| 2026-05-07 03:03 | 52.42535 | 7.77496 | 35153 ft | 479 kts | 352° |
| 2026-05-07 03:03 | 52.45844 | 7.76898 | 35321 ft | 479 kts | 352° |
| 2026-05-07 03:04 | 52.49163 | 7.76297 | 35512 ft | 479 kts | 352° |
| 2026-05-07 03:04 | 52.52479 | 7.75663 | 35672 ft | 480 kts | 350° |
| 2026-05-07 03:04 | 52.55751 | 7.74561 | 35828 ft | 479 kts | 345° |
| 2026-05-07 03:04 | 52.58982 | 7.73257 | 36001 ft | 479 kts | 344° |
| 2026-05-07 03:05 | 52.62217 | 7.71884 | 36202 ft | 479 kts | 343° |
| 2026-05-07 03:05 | 52.65437 | 7.70477 | 36370 ft | 479 kts | 343° |
| 2026-05-07 03:05 | 52.68654 | 7.69055 | 36548 ft | 479 kts | 343° |
| 2026-05-07 03:05 | 52.71865 | 7.67630 | 36707 ft | 479 kts | 343° |
| 2026-05-07 03:06 | 52.75046 | 7.66219 | 36866 ft | 479 kts | 343° |
| 2026-05-07 03:06 | 52.78260 | 7.64796 | 37025 ft | 479 kts | 342° |
| 2026-05-07 03:06 | 52.81488 | 7.63368 | 37163 ft | 480 kts | 342° |
| 2026-05-07 03:06 | 52.84715 | 7.61940 | 37332 ft | 480 kts | 342° |
| 2026-05-07 03:07 | 52.87942 | 7.60512 | 37504 ft | 480 kts | 342° |
| 2026-05-07 03:07 | 52.91166 | 7.59084 | 37693 ft | 479 kts | 342° |
| 2026-05-07 03:07 | 52.94386 | 7.57656 | 37825 ft | 479 kts | 342° |
| 2026-05-07 03:07 | 52.97621 | 7.56217 | 37862 ft | 482 kts | 342° |
| 2026-05-07 03:08 | 53.03021 | 7.53811 | 37865 ft | 482 kts | 342° |
| 2026-05-07 03:08 | 53.10536 | 7.50455 | 37869 ft | 480 kts | 342° |
| 2026-05-07 03:09 | 53.16982 | 7.47564 | 37881 ft | 480 kts | 342° |
| 2026-05-07 03:09 | 53.22392 | 7.45131 | 37879 ft | 480 kts | 342° |
| 2026-05-07 03:10 | 53.28850 | 7.42219 | 37887 ft | 480 kts | 342° |
| 2026-05-07 03:10 | 53.35304 | 7.39299 | 37886 ft | 480 kts | 342° |
| 2026-05-07 03:11 | 53.41712 | 7.36391 | 37884 ft | 480 kts | 342° |
| 2026-05-07 03:11 | 53.48163 | 7.33454 | 37888 ft | 480 kts | 342° |
| 2026-05-07 03:12 | 53.54620 | 7.30506 | 37887 ft | 480 kts | 342° |
| 2026-05-07 03:12 | 53.61058 | 7.27557 | 37896 ft | 480 kts | 342° |
| 2026-05-07 03:13 | 53.67508 | 7.24593 | 37896 ft | 479 kts | 342° |
| 2026-05-07 03:13 | 53.73928 | 7.21634 | 37903 ft | 478 kts | 342° |
| 2026-05-07 03:14 | 53.80353 | 7.18662 | 37908 ft | 478 kts | 342° |
| 2026-05-07 03:15 | 53.89995 | 7.14184 | 37910 ft | 479 kts | 342° |
| 2026-05-07 03:15 | 53.96421 | 7.11188 | 37916 ft | 479 kts | 342° |
| 2026-05-07 03:16 | 54.02855 | 7.08180 | 37917 ft | 479 kts | 342° |
| 2026-05-07 03:16 | 54.09236 | 7.05186 | 37917 ft | 479 kts | 341° |
| 2026-05-07 03:17 | 54.15667 | 7.02159 | 37926 ft | 479 kts | 341° |
| 2026-05-07 03:17 | 54.22094 | 6.99124 | 37931 ft | 479 kts | 341° |
| 2026-05-07 03:18 | 54.28526 | 6.96077 | 37934 ft | 479 kts | 341° |
| 2026-05-07 03:18 | 54.34950 | 6.93024 | 37938 ft | 479 kts | 341° |
| 2026-05-07 03:19 | 54.41194 | 6.90047 | 37938 ft | 478 kts | 341° |
| 2026-05-07 03:19 | 54.47610 | 6.86978 | 37944 ft | 478 kts | 341° |
| 2026-05-07 03:20 | 54.54022 | 6.83901 | 37949 ft | 478 kts | 341° |
| 2026-05-07 03:20 | 54.60441 | 6.80811 | 37952 ft | 478 kts | 341° |
| 2026-05-07 03:21 | 54.66852 | 6.77714 | 37958 ft | 478 kts | 341° |
| 2026-05-07 03:21 | 54.73236 | 6.74620 | 37957 ft | 478 kts | 341° |
| 2026-05-07 03:22 | 54.79637 | 6.71508 | 37963 ft | 478 kts | 341° |
| 2026-05-07 03:22 | 54.86048 | 6.68381 | 37963 ft | 478 kts | 341° |
| 2026-05-07 03:23 | 54.92468 | 6.65239 | 37969 ft | 478 kts | 341° |
| 2026-05-07 03:23 | 54.98863 | 6.62046 | 37967 ft | 477 kts | 337° |
| 2026-05-07 03:24 | 55.04996 | 6.57740 | 37970 ft | 474 kts | 333° |
| 2026-05-07 03:24 | 55.11049 | 6.53140 | 37983 ft | 473 kts | 332° |
| 2026-05-07 03:25 | 55.17063 | 6.48487 | 37982 ft | 473 kts | 332° |
| 2026-05-07 03:25 | 55.23073 | 6.43830 | 37984 ft | 472 kts | 332° |
| 2026-05-07 03:26 | 55.29047 | 6.39200 | 37992 ft | 472 kts | 332° |
| 2026-05-07 03:26 | 55.35064 | 6.34527 | 37994 ft | 472 kts | 332° |
| 2026-05-07 03:27 | 55.41076 | 6.29845 | 37993 ft | 471 kts | 332° |
| 2026-05-07 03:27 | 55.47074 | 6.25156 | 38001 ft | 471 kts | 332° |
| 2026-05-07 03:28 | 55.53021 | 6.20490 | 38007 ft | 471 kts | 332° |
| 2026-05-07 03:28 | 55.59008 | 6.15777 | 38004 ft | 471 kts | 332° |
| 2026-05-07 03:29 | 55.64992 | 6.11052 | 38010 ft | 470 kts | 331° |
| 2026-05-07 03:29 | 55.70962 | 6.06322 | 38007 ft | 470 kts | 331° |
| 2026-05-07 03:30 | 55.76935 | 6.01574 | 38018 ft | 470 kts | 331° |
| 2026-05-07 03:30 | 55.82898 | 5.96816 | 38018 ft | 470 kts | 331° |
| 2026-05-07 03:31 | 55.88860 | 5.92044 | 38021 ft | 470 kts | 331° |
| 2026-05-07 03:31 | 55.94820 | 5.87257 | 38021 ft | 470 kts | 331° |
| 2026-05-07 03:32 | 56.00779 | 5.82455 | 38026 ft | 470 kts | 331° |
| 2026-05-07 03:32 | 56.06697 | 5.77670 | 38026 ft | 469 kts | 331° |
| 2026-05-07 03:33 | 56.12648 | 5.72842 | 38026 ft | 470 kts | 331° |
| 2026-05-07 03:33 | 56.18606 | 5.67992 | 38041 ft | 469 kts | 331° |
| 2026-05-07 03:34 | 56.24545 | 5.63141 | 38031 ft | 469 kts | 331° |
| 2026-05-07 03:34 | 56.30479 | 5.58277 | 38023 ft | 469 kts | 330° |
| 2026-05-07 03:35 | 56.36414 | 5.53395 | 38028 ft | 469 kts | 330° |
| 2026-05-07 03:35 | 56.42339 | 5.48505 | 38032 ft | 468 kts | 330° |
| 2026-05-07 03:36 | 56.48264 | 5.43598 | 38035 ft | 468 kts | 330° |
| 2026-05-07 03:36 | 56.54191 | 5.38671 | 38037 ft | 469 kts | 330° |
| 2026-05-07 03:37 | 56.60119 | 5.33728 | 38034 ft | 469 kts | 330° |
| 2026-05-07 03:37 | 56.66036 | 5.28776 | 38042 ft | 468 kts | 330° |
| 2026-05-07 03:38 | 56.71922 | 5.23834 | 38043 ft | 468 kts | 330° |
| 2026-05-07 03:38 | 56.77842 | 5.18845 | 38044 ft | 469 kts | 330° |
| 2026-05-07 03:39 | 56.83768 | 5.13835 | 38047 ft | 469 kts | 330° |
| 2026-05-07 03:39 | 56.89698 | 5.08803 | 38042 ft | 469 kts | 330° |
| 2026-05-07 03:40 | 56.95611 | 5.03768 | 38048 ft | 469 kts | 330° |
| 2026-05-07 03:40 | 57.01426 | 4.98388 | 38084 ft | 466 kts | 325° |
| 2026-05-07 03:41 | 57.07014 | 4.92409 | 38050 ft | 465 kts | 324° |
| 2026-05-07 03:41 | 57.12526 | 4.86369 | 38049 ft | 464 kts | 324° |
| 2026-05-07 03:42 | 57.18086 | 4.80240 | 38054 ft | 464 kts | 324° |
| 2026-05-07 03:42 | 57.23626 | 4.74122 | 38071 ft | 464 kts | 324° |
| 2026-05-07 03:43 | 57.29169 | 4.67990 | 38054 ft | 463 kts | 324° |
| 2026-05-07 03:43 | 57.34691 | 4.61860 | 38056 ft | 463 kts | 324° |
| 2026-05-07 03:44 | 57.40175 | 4.55748 | 38056 ft | 463 kts | 324° |
| 2026-05-07 03:44 | 57.45694 | 4.49576 | 38061 ft | 463 kts | 324° |
| 2026-05-07 03:45 | 57.51211 | 4.43384 | 38062 ft | 463 kts | 324° |
| 2026-05-07 03:45 | 57.56727 | 4.37172 | 38061 ft | 463 kts | 324° |
| 2026-05-07 03:46 | 57.62233 | 4.30949 | 38064 ft | 463 kts | 323° |
| 2026-05-07 03:46 | 57.67748 | 4.24691 | 38067 ft | 464 kts | 323° |
| 2026-05-07 03:47 | 57.73259 | 4.18418 | 38065 ft | 463 kts | 324° |
| 2026-05-07 03:47 | 57.78724 | 4.12174 | 38075 ft | 462 kts | 323° |
| 2026-05-07 03:48 | 57.84211 | 4.05883 | 38070 ft | 462 kts | 323° |
| 2026-05-07 03:48 | 57.89692 | 3.99575 | 38081 ft | 462 kts | 323° |
| 2026-05-07 03:49 | 57.95177 | 3.93239 | 38065 ft | 462 kts | 323° |
| 2026-05-07 03:49 | 58.00654 | 3.86889 | 38076 ft | 462 kts | 323° |
| 2026-05-07 03:50 | 58.06131 | 3.80517 | 38074 ft | 462 kts | 323° |
| 2026-05-07 03:50 | 58.11598 | 3.74133 | 38076 ft | 462 kts | 323° |
| 2026-05-07 03:51 | 58.17023 | 3.67775 | 38072 ft | 461 kts | 323° |
| 2026-05-07 03:51 | 58.22465 | 3.61375 | 38072 ft | 460 kts | 323° |
| 2026-05-07 03:52 | 58.27903 | 3.54955 | 38074 ft | 460 kts | 323° |
| 2026-05-07 03:52 | 58.33328 | 3.48527 | 38074 ft | 460 kts | 323° |
| 2026-05-07 03:53 | 58.38751 | 3.42077 | 38074 ft | 460 kts | 323° |
| 2026-05-07 03:53 | 58.44176 | 3.35601 | 38105 ft | 460 kts | 323° |
| 2026-05-07 03:54 | 58.49589 | 3.29117 | 38075 ft | 459 kts | 323° |
| 2026-05-07 03:54 | 58.55000 | 3.22611 | 38074 ft | 459 kts | 323° |
| 2026-05-07 03:55 | 58.60406 | 3.16085 | 38074 ft | 459 kts | 323° |
| 2026-05-07 03:55 | 58.65810 | 3.09540 | 38075 ft | 458 kts | 323° |
| 2026-05-07 03:56 | 58.71197 | 3.02990 | 38073 ft | 458 kts | 323° |
| 2026-05-07 03:56 | 58.76546 | 2.96462 | 38071 ft | 458 kts | 323° |
| 2026-05-07 03:57 | 58.81921 | 2.89877 | 38073 ft | 458 kts | 323° |
| 2026-05-07 03:57 | 58.87300 | 2.83264 | 38076 ft | 458 kts | 322° |
| 2026-05-07 03:58 | 58.91767 | 2.77752 | 38075 ft | 458 kts | 322° |
| 2026-05-07 03:58 | 58.97138 | 2.71103 | 38076 ft | 458 kts | 322° |
| 2026-05-07 03:59 | 59.02504 | 2.64435 | 38087 ft | 458 kts | 322° |
| 2026-05-07 03:59 | 59.07871 | 2.57741 | 38067 ft | 458 kts | 322° |
| 2026-05-07 04:00 | 59.13224 | 2.51039 | 38064 ft | 457 kts | 322° |
| 2026-05-07 04:00 | 59.18558 | 2.44337 | 38077 ft | 457 kts | 322° |
| 2026-05-07 04:01 | 59.23898 | 2.37601 | 38062 ft | 457 kts | 322° |
| 2026-05-07 04:01 | 59.29199 | 2.30888 | 38064 ft | 457 kts | 322° |
| 2026-05-07 04:02 | 59.34536 | 2.24105 | 38070 ft | 457 kts | 322° |
| 2026-05-07 04:02 | 59.39866 | 2.17303 | 38069 ft | 457 kts | 322° |
| 2026-05-07 04:03 | 59.45191 | 2.10483 | 38069 ft | 457 kts | 322° |
| 2026-05-07 04:03 | 59.50512 | 2.03641 | 38070 ft | 457 kts | 322° |
| 2026-05-07 04:04 | 59.55797 | 1.96820 | 38069 ft | 456 kts | 322° |
| 2026-05-07 04:04 | 59.61101 | 1.89949 | 38072 ft | 457 kts | 322° |
| 2026-05-07 04:05 | 59.66434 | 1.83012 | 38070 ft | 458 kts | 322° |
| 2026-05-07 04:05 | 59.71758 | 1.76063 | 38061 ft | 458 kts | 322° |
| 2026-05-07 04:06 | 59.77046 | 1.69133 | 38061 ft | 458 kts | 322° |
| 2026-05-07 04:06 | 59.82362 | 1.62139 | 38061 ft | 458 kts | 322° |
| 2026-05-07 04:07 | 59.87659 | 1.55143 | 38061 ft | 458 kts | 322° |
| 2026-05-07 04:07 | 59.92972 | 1.48097 | 38062 ft | 459 kts | 322° |
| 2026-05-07 04:08 | 59.98301 | 1.41002 | 38059 ft | 460 kts | 322° |
| 2026-05-07 04:08 | 60.03620 | 1.33895 | 38059 ft | 460 kts | 322° |
| 2026-05-07 04:09 | 60.08925 | 1.26778 | 38053 ft | 458 kts | 322° |
| 2026-05-07 04:09 | 60.14218 | 1.19649 | 38057 ft | 457 kts | 322° |
| 2026-05-07 04:10 | 60.19462 | 1.12558 | 38053 ft | 458 kts | 322° |
| 2026-05-07 04:10 | 60.24739 | 1.05393 | 38048 ft | 458 kts | 322° |
| 2026-05-07 04:11 | 60.30017 | 0.98199 | 38043 ft | 458 kts | 322° |
| 2026-05-07 04:11 | 60.35300 | 0.90970 | 38042 ft | 458 kts | 322° |
| 2026-05-07 04:12 | 60.40569 | 0.83732 | 38034 ft | 458 kts | 322° |
| 2026-05-07 04:12 | 60.45842 | 0.76458 | 38034 ft | 458 kts | 322° |
| 2026-05-07 04:13 | 60.51099 | 0.69179 | 38030 ft | 458 kts | 322° |
| 2026-05-07 04:13 | 60.56353 | 0.61873 | 38028 ft | 456 kts | 322° |
| 2026-05-07 04:14 | 60.61538 | 0.54636 | 38036 ft | 455 kts | 322° |
| 2026-05-07 04:14 | 60.66743 | 0.47340 | 38021 ft | 454 kts | 322° |
| 2026-05-07 04:15 | 60.71954 | 0.40007 | 38019 ft | 454 kts | 322° |
| 2026-05-07 04:15 | 60.77156 | 0.32658 | 38024 ft | 455 kts | 322° |
| 2026-05-07 04:16 | 60.82372 | 0.25257 | 38015 ft | 456 kts | 322° |
| 2026-05-07 04:16 | 60.87586 | 0.17832 | 38013 ft | 457 kts | 322° |
| 2026-05-07 04:17 | 60.92812 | 0.10358 | 38016 ft | 456 kts | 322° |
| 2026-05-07 04:17 | 60.98021 | 0.02877 | 38022 ft | 456 kts | 321° |
| 2026-05-07 04:18 | 61.02765 | -0.05556 | 38014 ft | 453 kts | 314° |
| 2026-05-07 04:18 | 61.07300 | -0.14588 | 38016 ft | 454 kts | 313° |
| 2026-05-07 04:19 | 61.11808 | -0.23764 | 38007 ft | 454 kts | 313° |
| 2026-05-07 04:19 | 61.16313 | -0.32966 | 38007 ft | 455 kts | 313° |
| 2026-05-07 04:20 | 61.20790 | -0.42127 | 38008 ft | 454 kts | 313° |
| 2026-05-07 04:20 | 61.25287 | -0.51354 | 38005 ft | 454 kts | 313° |
| 2026-05-07 04:21 | 61.32020 | -0.65243 | 38005 ft | 454 kts | 313° |
| 2026-05-07 04:21 | 61.36502 | -0.74539 | 38006 ft | 455 kts | 313° |
| 2026-05-07 04:22 | 61.40984 | -0.83875 | 38001 ft | 455 kts | 313° |
| 2026-05-07 04:22 | 61.45460 | -0.93239 | 37996 ft | 455 kts | 313° |
| 2026-05-07 04:23 | 61.49926 | -1.02622 | 38000 ft | 455 kts | 312° |
| 2026-05-07 04:23 | 61.54390 | -1.12042 | 38000 ft | 455 kts | 312° |
| 2026-05-07 04:24 | 61.58844 | -1.21481 | 37997 ft | 455 kts | 312° |
| 2026-05-07 04:24 | 61.63296 | -1.30957 | 37991 ft | 455 kts | 312° |
| 2026-05-07 04:25 | 61.67710 | -1.40393 | 37997 ft | 455 kts | 312° |
| 2026-05-07 04:25 | 61.72146 | -1.49917 | 37996 ft | 455 kts | 312° |
| 2026-05-07 04:26 | 61.76572 | -1.59460 | 37997 ft | 454 kts | 312° |
| 2026-05-07 04:26 | 61.80984 | -1.69019 | 37994 ft | 454 kts | 312° |
| 2026-05-07 04:27 | 61.85393 | -1.78610 | 37999 ft | 454 kts | 312° |
| 2026-05-07 04:27 | 61.89794 | -1.88226 | 38000 ft | 454 kts | 311° |
| 2026-05-07 04:28 | 61.94192 | -1.97879 | 37997 ft | 455 kts | 312° |
| 2026-05-07 04:28 | 61.98561 | -2.07511 | 38001 ft | 455 kts | 311° |
| 2026-05-07 04:29 | 62.02947 | -2.17219 | 37995 ft | 450 kts | 311° |
| 2026-05-07 04:29 | 62.07243 | -2.26772 | 37991 ft | 448 kts | 311° |
| 2026-05-07 04:30 | 62.11544 | -2.36380 | 38014 ft | 448 kts | 311° |
| 2026-05-07 04:30 | 62.15839 | -2.46017 | 38014 ft | 448 kts | 311° |
| 2026-05-07 04:31 | 62.20127 | -2.55680 | 37997 ft | 448 kts | 311° |
| 2026-05-07 04:31 | 62.24416 | -2.65388 | 38006 ft | 448 kts | 311° |
| 2026-05-07 04:32 | 62.28702 | -2.75131 | 38009 ft | 449 kts | 311° |
| 2026-05-07 04:32 | 62.32981 | -2.84903 | 38007 ft | 449 kts | 311° |
| 2026-05-07 04:33 | 62.37255 | -2.94706 | 38010 ft | 449 kts | 311° |
| 2026-05-07 04:33 | 62.41516 | -3.04521 | 38012 ft | 448 kts | 311° |
| 2026-05-07 04:34 | 62.45745 | -3.14310 | 38012 ft | 448 kts | 311° |
| 2026-05-07 04:34 | 62.49985 | -3.24165 | 38030 ft | 448 kts | 311° |
| 2026-05-07 04:35 | 62.54230 | -3.34079 | 38016 ft | 449 kts | 311° |
| 2026-05-07 04:35 | 62.58472 | -3.44029 | 38016 ft | 449 kts | 311° |
| 2026-05-07 04:36 | 62.62704 | -3.54000 | 38019 ft | 449 kts | 311° |
| 2026-05-07 04:36 | 62.66934 | -3.64012 | 38015 ft | 449 kts | 311° |
| 2026-05-07 04:37 | 62.71159 | -3.74058 | 38017 ft | 449 kts | 311° |
| 2026-05-07 04:37 | 62.75371 | -3.84119 | 38022 ft | 449 kts | 310° |
| 2026-05-07 04:38 | 62.79570 | -3.94195 | 38029 ft | 449 kts | 310° |
| 2026-05-07 04:38 | 62.83750 | -4.04273 | 38027 ft | 450 kts | 310° |
| 2026-05-07 04:39 | 62.87954 | -4.14453 | 38025 ft | 450 kts | 310° |
| 2026-05-07 04:39 | 62.92148 | -4.24654 | 38029 ft | 450 kts | 310° |
| 2026-05-07 04:40 | 62.96339 | -4.34898 | 38032 ft | 450 kts | 310° |
| 2026-05-07 04:40 | 63.00513 | -4.45147 | 38032 ft | 450 kts | 310° |
| 2026-05-07 04:41 | 63.04664 | -4.55387 | 38034 ft | 450 kts | 310° |
| 2026-05-07 04:41 | 63.08825 | -4.65699 | 38039 ft | 450 kts | 310° |
| 2026-05-07 04:42 | 63.12986 | -4.76060 | 38039 ft | 451 kts | 310° |
| 2026-05-07 04:42 | 63.17148 | -4.86473 | 38045 ft | 451 kts | 310° |
| 2026-05-07 04:43 | 63.21296 | -4.96898 | 38045 ft | 451 kts | 310° |
| 2026-05-07 04:43 | 63.25434 | -5.07347 | 38045 ft | 451 kts | 310° |
| 2026-05-07 04:44 | 63.29560 | -5.17816 | 38056 ft | 451 kts | 310° |
| 2026-05-07 04:44 | 63.33688 | -5.28338 | 38053 ft | 451 kts | 310° |
| 2026-05-07 04:45 | 63.37809 | -5.38894 | 38052 ft | 452 kts | 310° |
| 2026-05-07 04:45 | 63.41891 | -5.49396 | 38058 ft | 449 kts | 310° |
| 2026-05-07 04:46 | 63.45981 | -5.59976 | 38066 ft | 450 kts | 309° |
| 2026-05-07 04:46 | 63.50061 | -5.70572 | 38063 ft | 448 kts | 309° |
| 2026-05-07 04:47 | 63.54119 | -5.81171 | 38067 ft | 448 kts | 309° |
| 2026-05-07 04:47 | 63.58178 | -5.91824 | 38073 ft | 450 kts | 309° |
| 2026-05-07 04:48 | 63.62232 | -6.02510 | 38089 ft | 450 kts | 309° |
| 2026-05-07 04:48 | 63.65607 | -6.11445 | 38076 ft | 452 kts | 309° |
| 2026-05-07 04:49 | 63.69674 | -6.22256 | 38075 ft | 452 kts | 309° |
| 2026-05-07 04:49 | 63.73718 | -6.33062 | 38082 ft | 451 kts | 309° |
| 2026-05-07 04:50 | 63.77758 | -6.43909 | 38084 ft | 451 kts | 309° |
| 2026-05-07 04:50 | 63.81778 | -6.54754 | 38088 ft | 449 kts | 309° |
| 2026-05-07 04:51 | 63.85782 | -6.65615 | 38088 ft | 450 kts | 309° |
| 2026-05-07 04:51 | 63.89773 | -6.76489 | 38096 ft | 451 kts | 309° |
| 2026-05-07 04:52 | 63.93778 | -6.87459 | 38089 ft | 452 kts | 309° |
| 2026-05-07 04:52 | 63.97790 | -6.98497 | 38100 ft | 454 kts | 309° |
| 2026-05-07 04:53 | 64.01800 | -7.09585 | 38094 ft | 452 kts | 309° |
| 2026-05-07 04:53 | 64.05785 | -7.20664 | 38102 ft | 452 kts | 309° |
| 2026-05-07 04:54 | 64.09767 | -7.31781 | 38107 ft | 451 kts | 309° |
| 2026-05-07 04:54 | 64.13732 | -7.42912 | 38109 ft | 451 kts | 308° |
| 2026-05-07 04:55 | 64.17682 | -7.54061 | 38118 ft | 451 kts | 309° |
| 2026-05-07 04:55 | 64.21633 | -7.65263 | 38115 ft | 452 kts | 309° |
| 2026-05-07 04:56 | 64.25580 | -7.76509 | 38113 ft | 452 kts | 308° |
| 2026-05-07 04:56 | 64.29528 | -7.87818 | 38119 ft | 454 kts | 308° |
| 2026-05-07 04:57 | 64.33482 | -7.99195 | 38116 ft | 453 kts | 308° |
| 2026-05-07 04:57 | 64.37382 | -8.10479 | 38121 ft | 451 kts | 308° |
| 2026-05-07 04:58 | 64.41295 | -8.21861 | 38130 ft | 452 kts | 308° |
| 2026-05-07 04:58 | 64.45191 | -8.33247 | 38125 ft | 449 kts | 308° |
| 2026-05-07 04:59 | 64.49055 | -8.44602 | 38129 ft | 450 kts | 308° |
| 2026-05-07 04:59 | 64.52932 | -8.56055 | 38129 ft | 452 kts | 308° |
| 2026-05-07 05:00 | 64.56787 | -8.67489 | 38128 ft | 451 kts | 308° |
| 2026-05-07 05:00 | 64.60676 | -8.79094 | 38136 ft | 452 kts | 308° |
| 2026-05-07 05:01 | 64.64517 | -8.90615 | 38135 ft | 453 kts | 308° |
| 2026-05-07 05:01 | 64.68386 | -9.02275 | 38135 ft | 453 kts | 308° |
| 2026-05-07 05:02 | 64.72220 | -9.13895 | 38146 ft | 451 kts | 308° |
| 2026-05-07 05:02 | 64.76057 | -9.25588 | 38145 ft | 453 kts | 308° |
| 2026-05-07 05:03 | 64.79884 | -9.37305 | 38145 ft | 451 kts | 308° |
| 2026-05-07 05:03 | 64.83678 | -9.48986 | 38153 ft | 449 kts | 307° |
| 2026-05-07 05:04 | 64.87467 | -9.60712 | 38153 ft | 452 kts | 307° |
| 2026-05-07 05:04 | 64.91272 | -9.72548 | 38154 ft | 453 kts | 307° |
| 2026-05-07 05:05 | 64.95031 | -9.84301 | 38155 ft | 452 kts | 307° |
| 2026-05-07 05:05 | 64.98822 | -9.96224 | 38163 ft | 456 kts | 307° |
| 2026-05-07 05:06 | 65.02613 | -10.08261 | 38165 ft | 455 kts | 307° |
| 2026-05-07 05:06 | 65.06343 | -10.20371 | 38169 ft | 454 kts | 307° |
| 2026-05-07 05:07 | 65.10044 | -10.32464 | 38168 ft | 453 kts | 306° |
| 2026-05-07 05:07 | 65.13755 | -10.44621 | 38179 ft | 455 kts | 307° |
| 2026-05-07 05:08 | 65.17450 | -10.56786 | 38176 ft | 452 kts | 306° |
| 2026-05-07 05:08 | 65.21124 | -10.68937 | 38182 ft | 453 kts | 306° |
| 2026-05-07 05:09 | 65.24792 | -10.81140 | 38184 ft | 452 kts | 307° |
| 2026-05-07 05:09 | 65.28456 | -10.93388 | 38181 ft | 455 kts | 306° |
| 2026-05-07 05:10 | 65.32099 | -11.05645 | 38187 ft | 455 kts | 306° |
| 2026-05-07 05:10 | 65.35747 | -11.17978 | 38191 ft | 453 kts | 306° |
| 2026-05-07 05:11 | 65.39390 | -11.30367 | 38191 ft | 455 kts | 306° |
| 2026-05-07 05:11 | 65.43036 | -11.42827 | 38191 ft | 457 kts | 306° |
| 2026-05-07 05:12 | 65.46679 | -11.55355 | 38212 ft | 457 kts | 306° |
| 2026-05-07 05:12 | 65.50304 | -11.67898 | 38200 ft | 454 kts | 306° |
| 2026-05-07 05:13 | 65.53901 | -11.80405 | 38202 ft | 452 kts | 305° |
| 2026-05-07 05:13 | 65.57488 | -11.92922 | 38215 ft | 455 kts | 305° |
| 2026-05-07 05:14 | 65.61058 | -12.05483 | 38215 ft | 456 kts | 306° |
| 2026-05-07 05:14 | 65.64628 | -12.18130 | 38216 ft | 452 kts | 306° |
| 2026-05-07 05:15 | 65.68164 | -12.30711 | 38217 ft | 451 kts | 306° |
| 2026-05-07 05:15 | 65.71695 | -12.43343 | 38221 ft | 453 kts | 306° |
| 2026-05-07 05:16 | 65.75229 | -12.56064 | 38225 ft | 453 kts | 306° |
| 2026-05-07 05:16 | 65.78757 | -12.68814 | 38232 ft | 456 kts | 305° |
| 2026-05-07 05:17 | 65.82286 | -12.81671 | 38237 ft | 455 kts | 305° |
| 2026-05-07 05:17 | 65.85784 | -12.94496 | 38240 ft | 453 kts | 306° |
| 2026-05-07 05:18 | 65.89286 | -13.07348 | 38241 ft | 456 kts | 304° |
| 2026-05-07 05:18 | 65.92790 | -13.20331 | 38245 ft | 456 kts | 305° |
| 2026-05-07 05:19 | 65.96267 | -13.33288 | 38248 ft | 455 kts | 304° |
| 2026-05-07 05:19 | 65.99729 | -13.46257 | 38253 ft | 457 kts | 304° |
| 2026-05-07 05:20 | 66.03203 | -13.59354 | 38261 ft | 457 kts | 304° |
| 2026-05-07 05:20 | 66.06642 | -13.72460 | 38263 ft | 453 kts | 304° |
| 2026-05-07 05:21 | 66.11771 | -13.91991 | 38268 ft | 454 kts | 305° |
| 2026-05-07 05:22 | 66.15193 | -14.05121 | 38276 ft | 457 kts | 304° |
| 2026-05-07 05:22 | 66.18588 | -14.18312 | 38276 ft | 455 kts | 304° |
| 2026-05-07 05:23 | 66.21992 | -14.31567 | 38277 ft | 456 kts | 304° |
| 2026-05-07 05:23 | 66.25376 | -14.44821 | 38289 ft | 454 kts | 304° |
| 2026-05-07 05:24 | 66.28747 | -14.58101 | 38288 ft | 454 kts | 304° |
| 2026-05-07 05:24 | 66.32099 | -14.71394 | 38288 ft | 454 kts | 304° |
| 2026-05-07 05:25 | 66.35444 | -14.84738 | 38299 ft | 454 kts | 303° |
| 2026-05-07 05:25 | 66.38782 | -14.98127 | 38297 ft | 456 kts | 303° |
| 2026-05-07 05:26 | 66.42098 | -15.11534 | 38303 ft | 456 kts | 303° |
| 2026-05-07 05:26 | 66.45426 | -15.25054 | 38309 ft | 457 kts | 303° |
| 2026-05-07 05:27 | 66.48748 | -15.38639 | 38293 ft | 457 kts | 303° |
| 2026-05-07 05:27 | 66.52046 | -15.52210 | 38298 ft | 455 kts | 303° |
| 2026-05-07 05:28 | 66.55327 | -15.65790 | 38318 ft | 455 kts | 303° |
| 2026-05-07 05:28 | 66.58602 | -15.79433 | 38318 ft | 455 kts | 303° |
| 2026-05-07 05:29 | 66.61861 | -15.93093 | 38327 ft | 455 kts | 302° |
| 2026-05-07 05:29 | 66.65113 | -16.06811 | 38317 ft | 457 kts | 302° |
| 2026-05-07 05:30 | 66.68362 | -16.20603 | 38318 ft | 457 kts | 302° |
| 2026-05-07 05:30 | 66.71576 | -16.34337 | 38329 ft | 457 kts | 302° |
| 2026-05-07 05:31 | 66.74793 | -16.48173 | 38332 ft | 456 kts | 302° |
| 2026-05-07 05:31 | 66.77998 | -16.62038 | 38335 ft | 456 kts | 302° |
| 2026-05-07 05:32 | 66.81187 | -16.75926 | 38341 ft | 456 kts | 302° |
| 2026-05-07 05:32 | 66.84369 | -16.89871 | 38343 ft | 456 kts | 302° |
| 2026-05-07 05:33 | 66.87535 | -17.03840 | 38342 ft | 456 kts | 302° |
| 2026-05-07 05:33 | 66.90684 | -17.17826 | 38354 ft | 455 kts | 302° |
| 2026-05-07 05:34 | 66.93821 | -17.31842 | 38334 ft | 455 kts | 301° |
| 2026-05-07 05:34 | 66.96950 | -17.45912 | 38352 ft | 456 kts | 301° |
| 2026-05-07 05:35 | 67.00071 | -17.60049 | 38360 ft | 456 kts | 301° |
| 2026-05-07 05:35 | 67.03179 | -17.74215 | 38360 ft | 457 kts | 301° |
| 2026-05-07 05:36 | 67.06259 | -17.88347 | 38360 ft | 457 kts | 301° |
| 2026-05-07 05:36 | 67.09344 | -18.02598 | 38368 ft | 456 kts | 301° |
| 2026-05-07 05:37 | 67.12406 | -18.16837 | 38366 ft | 455 kts | 301° |
| 2026-05-07 05:37 | 67.15449 | -18.31080 | 38369 ft | 455 kts | 301° |
| 2026-05-07 05:38 | 67.17972 | -18.42967 | 38374 ft | 453 kts | 301° |
| 2026-05-07 05:38 | 67.20986 | -18.57249 | 38367 ft | 453 kts | 301° |
| 2026-05-07 05:39 | 67.23983 | -18.71545 | 38376 ft | 453 kts | 301° |
| 2026-05-07 05:39 | 67.26966 | -18.85872 | 38379 ft | 453 kts | 300° |
| 2026-05-07 05:40 | 67.29939 | -19.00247 | 38380 ft | 453 kts | 300° |
| 2026-05-07 05:40 | 67.32904 | -19.14681 | 38388 ft | 453 kts | 300° |
| 2026-05-07 05:41 | 67.35852 | -19.29135 | 38391 ft | 454 kts | 300° |
| 2026-05-07 05:41 | 67.38793 | -19.43655 | 38387 ft | 455 kts | 300° |
| 2026-05-07 05:42 | 67.41711 | -19.58155 | 38400 ft | 456 kts | 299° |
| 2026-05-07 05:42 | 67.44639 | -19.72805 | 38401 ft | 456 kts | 299° |
| 2026-05-07 05:43 | 67.47549 | -19.87471 | 38398 ft | 456 kts | 299° |
| 2026-05-07 05:43 | 67.50706 | -20.01743 | 38413 ft | 453 kts | 309° |
| 2026-05-07 05:44 | 67.54557 | -20.14730 | 38409 ft | 451 kts | 310° |
| 2026-05-07 05:44 | 67.58511 | -20.27521 | 38412 ft | 451 kts | 311° |
| 2026-05-07 05:45 | 67.62460 | -20.40288 | 38415 ft | 450 kts | 310° |
| 2026-05-07 05:45 | 67.66387 | -20.53102 | 38420 ft | 450 kts | 310° |
| 2026-05-07 05:46 | 67.70303 | -20.65997 | 38434 ft | 452 kts | 310° |
| 2026-05-07 05:46 | 67.74219 | -20.78980 | 38425 ft | 451 kts | 310° |
| 2026-05-07 05:47 | 67.78078 | -20.91850 | 38428 ft | 450 kts | 310° |
| 2026-05-07 05:47 | 67.81954 | -21.04845 | 38433 ft | 450 kts | 310° |
| 2026-05-07 05:48 | 67.85826 | -21.17905 | 38451 ft | 451 kts | 310° |
| 2026-05-07 05:48 | 67.89704 | -21.31066 | 38455 ft | 453 kts | 309° |
| 2026-05-07 05:49 | 67.93572 | -21.44277 | 38438 ft | 453 kts | 309° |
| 2026-05-07 05:49 | 67.97429 | -21.57530 | 38436 ft | 453 kts | 309° |
| 2026-05-07 05:50 | 68.01275 | -21.70825 | 38449 ft | 453 kts | 309° |
| 2026-05-07 05:50 | 68.05090 | -21.84092 | 38464 ft | 453 kts | 309° |
| 2026-05-07 05:51 | 68.08917 | -21.97485 | 38470 ft | 453 kts | 309° |
| 2026-05-07 05:51 | 68.12731 | -22.10913 | 38451 ft | 453 kts | 309° |
| 2026-05-07 05:52 | 68.16538 | -22.24400 | 38449 ft | 453 kts | 309° |
| 2026-05-07 05:52 | 68.20331 | -22.37920 | 38458 ft | 453 kts | 309° |
| 2026-05-07 05:53 | 68.24091 | -22.51405 | 38476 ft | 453 kts | 309° |
| 2026-05-07 05:53 | 68.27863 | -22.65022 | 38455 ft | 453 kts | 308° |
| 2026-05-07 05:54 | 68.31623 | -22.78675 | 38465 ft | 453 kts | 308° |
| 2026-05-07 05:54 | 68.35369 | -22.92369 | 38468 ft | 453 kts | 308° |
| 2026-05-07 05:55 | 68.39106 | -23.06110 | 38471 ft | 452 kts | 308° |
| 2026-05-07 05:55 | 68.42826 | -23.19881 | 38470 ft | 451 kts | 308° |
| 2026-05-07 05:56 | 68.46525 | -23.33660 | 38467 ft | 451 kts | 308° |
| 2026-05-07 05:56 | 68.50195 | -23.47415 | 38468 ft | 452 kts | 308° |
| 2026-05-07 05:57 | 68.53881 | -23.61319 | 38468 ft | 452 kts | 308° |
| 2026-05-07 05:57 | 68.57548 | -23.75238 | 38465 ft | 451 kts | 308° |
| 2026-05-07 05:58 | 68.61203 | -23.89206 | 38470 ft | 451 kts | 308° |
| 2026-05-07 05:58 | 68.64849 | -24.03224 | 38466 ft | 451 kts | 307° |
| 2026-05-07 05:59 | 68.68483 | -24.17291 | 38467 ft | 451 kts | 307° |
| 2026-05-07 05:59 | 68.72104 | -24.31396 | 38468 ft | 451 kts | 307° |
| 2026-05-07 06:00 | 68.75713 | -24.45548 | 38455 ft | 451 kts | 307° |
| 2026-05-07 06:00 | 68.79308 | -24.59734 | 38459 ft | 451 kts | 307° |
| 2026-05-07 06:01 | 68.82887 | -24.73954 | 38457 ft | 450 kts | 307° |
| 2026-05-07 06:01 | 68.86448 | -24.88191 | 38457 ft | 450 kts | 307° |
| 2026-05-07 06:02 | 68.89999 | -25.02483 | 38460 ft | 450 kts | 307° |
| 2026-05-07 06:02 | 68.93519 | -25.16743 | 38454 ft | 450 kts | 307° |
| 2026-05-07 06:03 | 68.97051 | -25.31146 | 38457 ft | 450 kts | 306° |
| 2026-05-07 06:03 | 69.00567 | -25.45586 | 38451 ft | 450 kts | 306° |
| 2026-05-07 06:04 | 69.04068 | -25.60054 | 38457 ft | 450 kts | 306° |
| 2026-05-07 06:04 | 69.07555 | -25.74564 | 38455 ft | 450 kts | 306° |
| 2026-05-07 06:05 | 69.11033 | -25.89134 | 38469 ft | 450 kts | 306° |
| 2026-05-07 06:05 | 69.14498 | -26.03746 | 38468 ft | 449 kts | 306° |
| 2026-05-07 06:06 | 69.17944 | -26.18376 | 38472 ft | 449 kts | 306° |
| 2026-05-07 06:06 | 69.21361 | -26.32979 | 38471 ft | 449 kts | 306° |
| 2026-05-07 06:07 | 69.24787 | -26.47719 | 38471 ft | 449 kts | 306° |
| 2026-05-07 06:07 | 69.28195 | -26.62490 | 38478 ft | 449 kts | 305° |
| 2026-05-07 06:08 | 69.31596 | -26.77329 | 38480 ft | 449 kts | 305° |
| 2026-05-07 06:08 | 69.34984 | -26.92212 | 38479 ft | 449 kts | 305° |
| 2026-05-07 06:09 | 69.38358 | -27.07138 | 38468 ft | 449 kts | 305° |
| 2026-05-07 06:09 | 69.41718 | -27.22106 | 38468 ft | 449 kts | 305° |
| 2026-05-07 06:10 | 69.45068 | -27.37133 | 38469 ft | 449 kts | 305° |
| 2026-05-07 06:10 | 69.48380 | -27.52091 | 38470 ft | 449 kts | 305° |
| 2026-05-07 06:11 | 69.51700 | -27.67194 | 38444 ft | 449 kts | 304° |
| 2026-05-07 06:11 | 69.55006 | -27.82337 | 38466 ft | 449 kts | 304° |
| 2026-05-07 06:12 | 69.58302 | -27.97543 | 38465 ft | 449 kts | 304° |
| 2026-05-07 06:12 | 69.61583 | -28.12789 | 38475 ft | 449 kts | 304° |
| 2026-05-07 06:13 | 69.64829 | -28.27975 | 38465 ft | 449 kts | 304° |
| 2026-05-07 06:13 | 69.68076 | -28.43282 | 38470 ft | 448 kts | 304° |
| 2026-05-07 06:14 | 69.71310 | -28.58632 | 38471 ft | 448 kts | 304° |
| 2026-05-07 06:14 | 69.74532 | -28.74037 | 38474 ft | 448 kts | 304° |
| 2026-05-07 06:15 | 69.77738 | -28.89476 | 38478 ft | 448 kts | 304° |
| 2026-05-07 06:15 | 69.80932 | -29.04967 | 38479 ft | 448 kts | 303° |
| 2026-05-07 06:16 | 69.84113 | -29.20512 | 38498 ft | 448 kts | 303° |
| 2026-05-07 06:16 | 69.87278 | -29.36094 | 38525 ft | 448 kts | 303° |
| 2026-05-07 06:17 | 69.90423 | -29.51690 | 38533 ft | 447 kts | 303° |
| 2026-05-07 06:17 | 69.93555 | -29.67338 | 38532 ft | 447 kts | 303° |
| 2026-05-07 06:18 | 69.96668 | -29.83002 | 38573 ft | 447 kts | 303° |
| 2026-05-07 06:18 | 69.99808 | -29.98652 | 38577 ft | 446 kts | 307° |
| 2026-05-07 06:19 | 70.03345 | -30.13356 | 38571 ft | 444 kts | 309° |
| 2026-05-07 06:19 | 70.06970 | -30.28006 | 38557 ft | 444 kts | 309° |
| 2026-05-07 06:20 | 70.10600 | -30.42679 | 38566 ft | 443 kts | 309° |
| 2026-05-07 06:20 | 70.14205 | -30.57371 | 38548 ft | 443 kts | 308° |
| 2026-05-07 06:21 | 70.17796 | -30.72133 | 38513 ft | 443 kts | 308° |
| 2026-05-07 06:21 | 70.21372 | -30.86943 | 38513 ft | 443 kts | 308° |
| 2026-05-07 06:22 | 70.24934 | -31.01795 | 38506 ft | 443 kts | 308° |
| 2026-05-07 06:22 | 70.30266 | -31.24225 | 38523 ft | 443 kts | 308° |
| 2026-05-07 06:23 | 70.33779 | -31.39129 | 38527 ft | 443 kts | 308° |
| 2026-05-07 06:23 | 70.37303 | -31.54185 | 38551 ft | 443 kts | 308° |
| 2026-05-07 06:24 | 70.40807 | -31.69263 | 38537 ft | 443 kts | 308° |
| 2026-05-07 06:24 | 70.44294 | -31.84371 | 38543 ft | 442 kts | 307° |
| 2026-05-07 06:25 | 70.47764 | -31.99512 | 38547 ft | 442 kts | 307° |
| 2026-05-07 06:25 | 70.51228 | -32.14734 | 38543 ft | 442 kts | 307° |
| 2026-05-07 06:26 | 70.54667 | -32.29954 | 38552 ft | 441 kts | 307° |
| 2026-05-07 06:26 | 70.58070 | -32.45123 | 38554 ft | 441 kts | 307° |
| 2026-05-07 06:27 | 70.61485 | -32.60448 | 38546 ft | 441 kts | 307° |
| 2026-05-07 06:27 | 70.64882 | -32.75809 | 38548 ft | 441 kts | 307° |
| 2026-05-07 06:28 | 70.67700 | -32.88633 | 38548 ft | 441 kts | 307° |
| 2026-05-07 06:28 | 70.71081 | -33.04121 | 38550 ft | 441 kts | 307° |
| 2026-05-07 06:29 | 70.74441 | -33.19627 | 38542 ft | 440 kts | 306° |
| 2026-05-07 06:29 | 70.77780 | -33.35148 | 38558 ft | 439 kts | 306° |
| 2026-05-07 06:30 | 70.81105 | -33.50710 | 38537 ft | 439 kts | 306° |
| 2026-05-07 06:30 | 70.84397 | -33.66235 | 38557 ft | 439 kts | 306° |
| 2026-05-07 06:31 | 70.87695 | -33.81905 | 38539 ft | 439 kts | 306° |
| 2026-05-07 06:31 | 70.90985 | -33.97650 | 38537 ft | 439 kts | 306° |
| 2026-05-07 06:32 | 70.94253 | -34.13405 | 38556 ft | 438 kts | 306° |
| 2026-05-07 06:32 | 70.97492 | -34.29142 | 38554 ft | 436 kts | 306° |
| 2026-05-07 06:33 | 71.00716 | -34.44912 | 38555 ft | 436 kts | 306° |
| 2026-05-07 06:33 | 71.03922 | -34.60718 | 38555 ft | 436 kts | 305° |
| 2026-05-07 06:34 | 71.07117 | -34.76581 | 38558 ft | 436 kts | 305° |
| 2026-05-07 06:34 | 71.10279 | -34.92401 | 38557 ft | 436 kts | 305° |
| 2026-05-07 06:35 | 71.13449 | -35.08382 | 38553 ft | 436 kts | 305° |
| 2026-05-07 06:35 | 71.16601 | -35.24399 | 38557 ft | 436 kts | 304° |
| 2026-05-07 06:36 | 71.19738 | -35.40450 | 38557 ft | 435 kts | 304° |
| 2026-05-07 06:36 | 71.22858 | -35.56542 | 38549 ft | 435 kts | 304° |
| 2026-05-07 06:37 | 71.25968 | -35.72705 | 38549 ft | 435 kts | 304° |
| 2026-05-07 06:37 | 71.29062 | -35.88907 | 38546 ft | 435 kts | 304° |
| 2026-05-07 06:38 | 71.32143 | -36.05166 | 38546 ft | 436 kts | 304° |
| 2026-05-07 06:38 | 71.35209 | -36.21471 | 38546 ft | 436 kts | 304° |
| 2026-05-07 06:39 | 71.38266 | -36.37855 | 38543 ft | 436 kts | 303° |
| 2026-05-07 06:39 | 71.41310 | -36.54301 | 38526 ft | 436 kts | 303° |
| 2026-05-07 06:40 | 71.44312 | -36.70644 | 38539 ft | 435 kts | 303° |
| 2026-05-07 06:40 | 71.47315 | -36.87121 | 38540 ft | 435 kts | 303° |
| 2026-05-07 06:41 | 71.50307 | -37.03669 | 38541 ft | 435 kts | 303° |
| 2026-05-07 06:41 | 71.53280 | -37.20246 | 38540 ft | 434 kts | 303° |
| 2026-05-07 06:42 | 71.56239 | -37.36874 | 38541 ft | 433 kts | 303° |
| 2026-05-07 06:42 | 71.59168 | -37.53466 | 38538 ft | 433 kts | 303° |
| 2026-05-07 06:43 | 71.62087 | -37.70135 | 38538 ft | 433 kts | 302° |
| 2026-05-07 06:43 | 71.64994 | -37.86865 | 38538 ft | 433 kts | 302° |
| 2026-05-07 06:44 | 71.67885 | -38.03643 | 38541 ft | 433 kts | 302° |
| 2026-05-07 06:44 | 71.70760 | -38.20460 | 38522 ft | 433 kts | 302° |
| 2026-05-07 06:45 | 71.73618 | -38.37323 | 38540 ft | 432 kts | 302° |
| 2026-05-07 06:45 | 71.76438 | -38.54095 | 38539 ft | 431 kts | 302° |
| 2026-05-07 06:46 | 71.79262 | -38.71025 | 38548 ft | 432 kts | 301° |
| 2026-05-07 06:46 | 71.82071 | -38.88007 | 38549 ft | 432 kts | 301° |
| 2026-05-07 06:47 | 71.84865 | -39.05044 | 38559 ft | 432 kts | 301° |
| 2026-05-07 06:47 | 71.87647 | -39.22142 | 38552 ft | 432 kts | 301° |
| 2026-05-07 06:48 | 71.90412 | -39.39284 | 38541 ft | 431 kts | 301° |
| 2026-05-07 06:48 | 71.93155 | -39.56437 | 38541 ft | 431 kts | 301° |
| 2026-05-07 06:49 | 71.95881 | -39.73627 | 38573 ft | 431 kts | 301° |
| 2026-05-07 06:49 | 71.98580 | -39.90785 | 38575 ft | 431 kts | 300° |
| 2026-05-07 06:50 | 72.00912 | -40.08689 | 38576 ft | 434 kts | 294° |
| 2026-05-07 06:50 | 72.02894 | -40.27173 | 38577 ft | 435 kts | 292° |
| 2026-05-07 06:51 | 72.04811 | -40.45796 | 38566 ft | 435 kts | 292° |
| 2026-05-07 06:51 | 72.06703 | -40.64419 | 38572 ft | 433 kts | 292° |
| 2026-05-07 06:52 | 72.08565 | -40.82879 | 38569 ft | 432 kts | 292° |
| 2026-05-07 06:52 | 72.10424 | -41.01464 | 38571 ft | 433 kts | 292° |
| 2026-05-07 06:53 | 72.12266 | -41.20094 | 38570 ft | 433 kts | 292° |
| 2026-05-07 06:53 | 72.14093 | -41.38785 | 38568 ft | 433 kts | 291° |
| 2026-05-07 06:54 | 72.15901 | -41.57511 | 38566 ft | 432 kts | 291° |
| 2026-05-07 06:54 | 72.17685 | -41.76216 | 38561 ft | 431 kts | 291° |
| 2026-05-07 06:55 | 72.19432 | -41.94758 | 38567 ft | 429 kts | 291° |
| 2026-05-07 06:55 | 72.21177 | -42.13494 | 38567 ft | 428 kts | 291° |
| 2026-05-07 06:56 | 72.22883 | -42.32025 | 38567 ft | 428 kts | 291° |
| 2026-05-07 06:56 | 72.24584 | -42.50728 | 38570 ft | 428 kts | 290° |
| 2026-05-07 06:57 | 72.26269 | -42.69484 | 38569 ft | 428 kts | 290° |
| 2026-05-07 06:57 | 72.27934 | -42.88263 | 38569 ft | 429 kts | 290° |
| 2026-05-07 06:58 | 72.29581 | -43.07071 | 38561 ft | 429 kts | 290° |
| 2026-05-07 06:58 | 72.31208 | -43.25889 | 38567 ft | 427 kts | 290° |
| 2026-05-07 06:59 | 72.32812 | -43.44681 | 38567 ft | 427 kts | 289° |
| 2026-05-07 06:59 | 72.34401 | -43.63528 | 38564 ft | 427 kts | 289° |
| 2026-05-07 07:00 | 72.35959 | -43.82255 | 38555 ft | 426 kts | 289° |
| 2026-05-07 07:00 | 72.37507 | -44.01125 | 38570 ft | 426 kts | 289° |
| 2026-05-07 07:01 | 72.39036 | -44.20007 | 38570 ft | 426 kts | 289° |
| 2026-05-07 07:01 | 72.40548 | -44.38915 | 38553 ft | 426 kts | 289° |
| 2026-05-07 07:02 | 72.42040 | -44.57856 | 38546 ft | 423 kts | 289° |
| 2026-05-07 07:02 | 72.43507 | -44.76724 | 38546 ft | 422 kts | 288° |
| 2026-05-07 07:03 | 72.44942 | -44.95439 | 38543 ft | 422 kts | 288° |
| 2026-05-07 07:03 | 72.46371 | -45.14322 | 38532 ft | 423 kts | 288° |
| 2026-05-07 07:04 | 72.47782 | -45.33254 | 38535 ft | 423 kts | 288° |
| 2026-05-07 07:04 | 72.49178 | -45.52242 | 38530 ft | 423 kts | 288° |
| 2026-05-07 07:05 | 72.50554 | -45.71245 | 38527 ft | 423 kts | 288° |
| 2026-05-07 07:05 | 72.51908 | -45.90225 | 38532 ft | 421 kts | 287° |
| 2026-05-07 07:06 | 72.53239 | -46.09160 | 38452 ft | 419 kts | 287° |
| 2026-05-07 07:06 | 72.54541 | -46.27950 | 38497 ft | 418 kts | 287° |
| 2026-05-07 07:07 | 72.55828 | -46.46817 | 38501 ft | 417 kts | 287° |
| 2026-05-07 07:07 | 72.57099 | -46.65715 | 38487 ft | 418 kts | 287° |
| 2026-05-07 07:08 | 72.58353 | -46.84670 | 38485 ft | 418 kts | 287° |
| 2026-05-07 07:08 | 72.59587 | -47.03623 | 38479 ft | 418 kts | 286° |
| 2026-05-07 07:09 | 72.60802 | -47.22601 | 38467 ft | 416 kts | 286° |
| 2026-05-07 07:09 | 72.61993 | -47.41505 | 38468 ft | 415 kts | 285° |
| 2026-05-07 07:10 | 72.63159 | -47.60283 | 38464 ft | 414 kts | 285° |
| 2026-05-07 07:10 | 72.64315 | -47.79208 | 38443 ft | 414 kts | 285° |
| 2026-05-07 07:11 | 72.65450 | -47.98130 | 38444 ft | 415 kts | 285° |
| 2026-05-07 07:11 | 72.66570 | -48.17105 | 38443 ft | 415 kts | 285° |
| 2026-05-07 07:12 | 72.67671 | -48.36101 | 38421 ft | 415 kts | 285° |
| 2026-05-07 07:12 | 72.68754 | -48.55108 | 38430 ft | 414 kts | 285° |
| 2026-05-07 07:13 | 72.69816 | -48.74108 | 38425 ft | 413 kts | 285° |
| 2026-05-07 07:13 | 72.70858 | -48.93075 | 38391 ft | 413 kts | 284° |
| 2026-05-07 07:14 | 72.71876 | -49.11944 | 38392 ft | 413 kts | 284° |
| 2026-05-07 07:14 | 72.72885 | -49.30989 | 38389 ft | 413 kts | 284° |
| 2026-05-07 07:15 | 72.73874 | -49.50019 | 38389 ft | 413 kts | 284° |
| 2026-05-07 07:15 | 72.74845 | -49.69084 | 38389 ft | 413 kts | 284° |
| 2026-05-07 07:16 | 72.75799 | -49.88183 | 38359 ft | 413 kts | 283° |
| 2026-05-07 07:16 | 72.76732 | -50.07259 | 38359 ft | 411 kts | 283° |
| 2026-05-07 07:17 | 72.77644 | -50.26287 | 38363 ft | 411 kts | 283° |
| 2026-05-07 07:17 | 72.78540 | -50.45348 | 38351 ft | 411 kts | 283° |
| 2026-05-07 07:18 | 72.79271 | -50.61195 | 38350 ft | 411 kts | 283° |
| 2026-05-07 07:18 | 72.80134 | -50.80312 | 38350 ft | 411 kts | 282° |
| 2026-05-07 07:19 | 72.80979 | -50.99443 | 38340 ft | 412 kts | 282° |
| 2026-05-07 07:19 | 72.81808 | -51.18631 | 38351 ft | 412 kts | 282° |
| 2026-05-07 07:20 | 72.82618 | -51.37821 | 38346 ft | 412 kts | 281° |
| 2026-05-07 07:20 | 72.83406 | -51.56974 | 38347 ft | 410 kts | 281° |
| 2026-05-07 07:21 | 72.84176 | -51.76097 | 38383 ft | 410 kts | 281° |
| 2026-05-07 07:21 | 72.84929 | -51.95242 | 38399 ft | 410 kts | 281° |
| 2026-05-07 07:22 | 72.85664 | -52.14417 | 38405 ft | 410 kts | 281° |
| 2026-05-07 07:22 | 72.86380 | -52.33606 | 38404 ft | 410 kts | 281° |
| 2026-05-07 07:23 | 72.87079 | -52.52831 | 38405 ft | 410 kts | 281° |
| 2026-05-07 07:23 | 72.87758 | -52.72042 | 38397 ft | 410 kts | 280° |
| 2026-05-07 07:24 | 72.88415 | -52.91131 | 38367 ft | 409 kts | 279° |
| 2026-05-07 07:24 | 72.89056 | -53.10319 | 38367 ft | 408 kts | 279° |
| 2026-05-07 07:25 | 72.89985 | -53.39072 | 38354 ft | 408 kts | 279° |
| 2026-05-07 07:26 | 72.90581 | -53.58284 | 38351 ft | 408 kts | 279° |
| 2026-05-07 07:26 | 72.91158 | -53.77488 | 38354 ft | 408 kts | 278° |
| 2026-05-07 07:27 | 72.91718 | -53.96712 | 38318 ft | 408 kts | 278° |
| 2026-05-07 07:27 | 72.92260 | -54.15958 | 38319 ft | 408 kts | 278° |
| 2026-05-07 07:28 | 72.92783 | -54.35152 | 38319 ft | 407 kts | 278° |
| 2026-05-07 07:28 | 72.93282 | -54.54210 | 38323 ft | 407 kts | 277° |
| 2026-05-07 07:29 | 72.93767 | -54.73403 | 38315 ft | 407 kts | 277° |
| 2026-05-07 07:29 | 72.94234 | -54.92611 | 38320 ft | 407 kts | 277° |
| 2026-05-07 07:30 | 72.94685 | -55.11854 | 38318 ft | 407 kts | 277° |
| 2026-05-07 07:30 | 72.95113 | -55.30953 | 38322 ft | 407 kts | 277° |
| 2026-05-07 07:31 | 72.95526 | -55.50176 | 38320 ft | 407 kts | 277° |
| 2026-05-07 07:31 | 72.95925 | -55.69438 | 38321 ft | 406 kts | 276° |
| 2026-05-07 07:32 | 72.96303 | -55.88652 | 38320 ft | 405 kts | 275° |
| 2026-05-07 07:32 | 72.96657 | -56.07767 | 38320 ft | 403 kts | 275° |
| 2026-05-07 07:33 | 72.96993 | -56.26848 | 38324 ft | 404 kts | 275° |
| 2026-05-07 07:33 | 72.97312 | -56.45967 | 38323 ft | 404 kts | 275° |
| 2026-05-07 07:34 | 72.97615 | -56.65089 | 38317 ft | 403 kts | 275° |
| 2026-05-07 07:34 | 72.97900 | -56.84216 | 38320 ft | 403 kts | 275° |
| 2026-05-07 07:35 | 72.98168 | -57.03346 | 38333 ft | 403 kts | 274° |
| 2026-05-07 07:35 | 72.98419 | -57.22483 | 38319 ft | 403 kts | 274° |
| 2026-05-07 07:36 | 72.98648 | -57.41590 | 38319 ft | 403 kts | 274° |
| 2026-05-07 07:36 | 72.98860 | -57.60720 | 38320 ft | 403 kts | 274° |
| 2026-05-07 07:37 | 72.99053 | -57.79694 | 38319 ft | 403 kts | 274° |
| 2026-05-07 07:37 | 72.99231 | -57.98833 | 38323 ft | 403 kts | 273° |
| 2026-05-07 07:38 | 72.99390 | -58.17956 | 38322 ft | 403 kts | 273° |
| 2026-05-07 07:38 | 72.99534 | -58.37071 | 38327 ft | 402 kts | 272° |
| 2026-05-07 07:39 | 72.99659 | -58.56173 | 38328 ft | 402 kts | 272° |
| 2026-05-07 07:39 | 72.99763 | -58.75235 | 38318 ft | 401 kts | 272° |
| 2026-05-07 07:40 | 72.99849 | -58.94309 | 38328 ft | 401 kts | 272° |
| 2026-05-07 07:40 | 72.99918 | -59.13382 | 38331 ft | 401 kts | 271° |
| 2026-05-07 07:41 | 72.99970 | -59.32441 | 38331 ft | 401 kts | 271° |
| 2026-05-07 07:41 | 73.00005 | -59.51511 | 38330 ft | 401 kts | 271° |
| 2026-05-07 07:42 | 73.00022 | -59.70462 | 38333 ft | 401 kts | 271° |
| 2026-05-07 07:42 | 73.00021 | -59.89523 | 38331 ft | 401 kts | 271° |
| 2026-05-07 07:43 | 72.99959 | -60.08584 | 38332 ft | 401 kts | 268° |
| 2026-05-07 07:43 | 72.99472 | -60.27591 | 38330 ft | 401 kts | 265° |
| 2026-05-07 07:44 | 72.98870 | -60.46504 | 38332 ft | 401 kts | 265° |
| 2026-05-07 07:44 | 72.98307 | -60.65464 | 38321 ft | 401 kts | 265° |
| 2026-05-07 07:45 | 72.97769 | -60.84406 | 38328 ft | 402 kts | 265° |
| 2026-05-07 07:45 | 72.97221 | -61.03392 | 38333 ft | 402 kts | 265° |
| 2026-05-07 07:46 | 72.96655 | -61.22350 | 38334 ft | 402 kts | 265° |
| 2026-05-07 07:46 | 72.96070 | -61.41297 | 38354 ft | 402 kts | 264° |
| 2026-05-07 07:47 | 72.95466 | -61.60236 | 38333 ft | 401 kts | 264° |
| 2026-05-07 07:47 | 72.94849 | -61.79004 | 38337 ft | 401 kts | 264° |
| 2026-05-07 07:48 | 72.94211 | -61.97890 | 38337 ft | 401 kts | 264° |
| 2026-05-07 07:48 | 72.93555 | -62.16780 | 38331 ft | 401 kts | 264° |
| 2026-05-07 07:49 | 72.92881 | -62.35642 | 38325 ft | 401 kts | 263° |
| 2026-05-07 07:49 | 72.92191 | -62.54498 | 38329 ft | 401 kts | 263° |
| 2026-05-07 07:50 | 72.91482 | -62.73342 | 38326 ft | 401 kts | 263° |
| 2026-05-07 07:50 | 72.90757 | -62.92156 | 38327 ft | 401 kts | 263° |
| 2026-05-07 07:51 | 72.90015 | -63.10938 | 38329 ft | 401 kts | 263° |
| 2026-05-07 07:51 | 72.89255 | -63.29726 | 38319 ft | 401 kts | 263° |
| 2026-05-07 07:52 | 72.88482 | -63.48401 | 38316 ft | 401 kts | 263° |
| 2026-05-07 07:52 | 72.87688 | -63.67151 | 38318 ft | 401 kts | 262° |
| 2026-05-07 07:53 | 72.86876 | -63.85890 | 38314 ft | 401 kts | 262° |
| 2026-05-07 07:53 | 72.86046 | -64.04617 | 38319 ft | 401 kts | 262° |
| 2026-05-07 07:54 | 72.85200 | -64.23324 | 38307 ft | 401 kts | 262° |
| 2026-05-07 07:54 | 72.84337 | -64.41998 | 38321 ft | 402 kts | 261° |
| 2026-05-07 07:55 | 72.83456 | -64.60672 | 38306 ft | 401 kts | 261° |
| 2026-05-07 07:55 | 72.82559 | -64.79311 | 38306 ft | 401 kts | 261° |
| 2026-05-07 07:56 | 72.81645 | -64.97951 | 38285 ft | 402 kts | 261° |
| 2026-05-07 07:56 | 72.80718 | -65.16469 | 38315 ft | 402 kts | 260° |
| 2026-05-07 07:57 | 72.79766 | -65.35088 | 38311 ft | 402 kts | 260° |
| 2026-05-07 07:57 | 72.78797 | -65.53705 | 38302 ft | 402 kts | 260° |
| 2026-05-07 07:58 | 72.77812 | -65.72288 | 38300 ft | 402 kts | 260° |
| 2026-05-07 07:58 | 72.76810 | -65.90857 | 38313 ft | 402 kts | 259° |
| 2026-05-07 07:59 | 72.75791 | -66.09416 | 38297 ft | 402 kts | 259° |
| 2026-05-07 07:59 | 72.74754 | -66.27952 | 38302 ft | 402 kts | 259° |
| 2026-05-07 08:00 | 72.73701 | -66.46456 | 38297 ft | 402 kts | 259° |
| 2026-05-07 08:00 | 72.72630 | -66.64952 | 38295 ft | 402 kts | 259° |
| 2026-05-07 08:01 | 72.71551 | -66.83280 | 38293 ft | 402 kts | 258° |
| 2026-05-07 08:01 | 72.70446 | -67.01740 | 38290 ft | 402 kts | 258° |
| 2026-05-07 08:02 | 72.69326 | -67.20173 | 38290 ft | 404 kts | 258° |
| 2026-05-07 08:02 | 72.68181 | -67.38671 | 38302 ft | 405 kts | 257° |
| 2026-05-07 08:03 | 72.67017 | -67.57183 | 38288 ft | 405 kts | 257° |
| 2026-05-07 08:03 | 72.65690 | -67.75513 | 38290 ft | 405 kts | 253° |
| 2026-05-07 08:04 | 72.64032 | -67.93506 | 38296 ft | 405 kts | 252° |
| 2026-05-07 08:04 | 72.62315 | -68.11346 | 38293 ft | 405 kts | 252° |
| 2026-05-07 08:05 | 72.60856 | -68.26317 | 38288 ft | 405 kts | 252° |
| 2026-05-07 08:05 | 72.59100 | -68.44199 | 38290 ft | 405 kts | 252° |
| 2026-05-07 08:06 | 72.57334 | -68.62038 | 38299 ft | 405 kts | 252° |
| 2026-05-07 08:06 | 72.55563 | -68.79734 | 38291 ft | 405 kts | 251° |
| 2026-05-07 08:07 | 72.53768 | -68.97492 | 38285 ft | 405 kts | 251° |
| 2026-05-07 08:07 | 72.51948 | -69.15296 | 38299 ft | 407 kts | 250° |
| 2026-05-07 08:08 | 72.50108 | -69.33092 | 38297 ft | 407 kts | 250° |
| 2026-05-07 08:08 | 72.48250 | -69.50878 | 38287 ft | 407 kts | 250° |
| 2026-05-07 08:09 | 72.46379 | -69.68607 | 38294 ft | 407 kts | 250° |
| 2026-05-07 08:09 | 72.44491 | -69.86308 | 38287 ft | 407 kts | 250° |
| 2026-05-07 08:10 | 72.42590 | -70.03939 | 38293 ft | 407 kts | 250° |
| 2026-05-07 08:10 | 72.40686 | -70.21432 | 38289 ft | 407 kts | 250° |
| 2026-05-07 08:11 | 72.38751 | -70.39025 | 38305 ft | 407 kts | 249° |
| 2026-05-07 08:11 | 72.36799 | -70.56588 | 38290 ft | 407 kts | 249° |
| 2026-05-07 08:12 | 72.34830 | -70.74123 | 38287 ft | 409 kts | 249° |
| 2026-05-07 08:12 | 72.32837 | -70.91704 | 38288 ft | 411 kts | 248° |
| 2026-05-07 08:13 | 72.30823 | -71.09295 | 38291 ft | 411 kts | 248° |
| 2026-05-07 08:13 | 72.28793 | -71.26846 | 38293 ft | 411 kts | 248° |
| 2026-05-07 08:14 | 72.26747 | -71.44369 | 38291 ft | 411 kts | 248° |
| 2026-05-07 08:14 | 72.24683 | -71.61867 | 38292 ft | 411 kts | 248° |
| 2026-05-07 08:15 | 72.22605 | -71.79308 | 38299 ft | 411 kts | 248° |
| 2026-05-07 08:15 | 72.20524 | -71.96617 | 38302 ft | 411 kts | 248° |
| 2026-05-07 08:16 | 72.18420 | -72.13944 | 38302 ft | 410 kts | 247° |
| 2026-05-07 08:16 | 72.16297 | -72.31269 | 38298 ft | 410 kts | 247° |
| 2026-05-07 08:17 | 72.14157 | -72.48560 | 38305 ft | 413 kts | 246° |
| 2026-05-07 08:17 | 72.11985 | -72.65944 | 38312 ft | 415 kts | 246° |
| 2026-05-07 08:18 | 72.09795 | -72.83315 | 38305 ft | 415 kts | 246° |
| 2026-05-07 08:18 | 72.07593 | -73.00623 | 38303 ft | 415 kts | 246° |
| 2026-05-07 08:19 | 72.05370 | -73.17925 | 38307 ft | 415 kts | 246° |
| 2026-05-07 08:19 | 72.03148 | -73.35060 | 38319 ft | 415 kts | 246° |
| 2026-05-07 08:20 | 72.00902 | -73.52229 | 38310 ft | 414 kts | 246° |
| 2026-05-07 08:20 | 71.98642 | -73.69340 | 38311 ft | 414 kts | 245° |
| 2026-05-07 08:21 | 71.96369 | -73.86402 | 38308 ft | 414 kts | 245° |
| 2026-05-07 08:21 | 71.94079 | -74.03430 | 38286 ft | 414 kts | 245° |
| 2026-05-07 08:22 | 71.91766 | -74.20481 | 38306 ft | 417 kts | 245° |
| 2026-05-07 08:22 | 71.89426 | -74.37574 | 38297 ft | 418 kts | 244° |
| 2026-05-07 08:23 | 71.87070 | -74.54637 | 38292 ft | 417 kts | 244° |
| 2026-05-07 08:23 | 71.84701 | -74.71640 | 38302 ft | 418 kts | 244° |
| 2026-05-07 08:24 | 71.82332 | -74.88492 | 38291 ft | 417 kts | 244° |
| 2026-05-07 08:24 | 71.79938 | -75.05378 | 38273 ft | 417 kts | 244° |
| 2026-05-07 08:25 | 71.77528 | -75.22225 | 38271 ft | 417 kts | 244° |
| 2026-05-07 08:25 | 71.75105 | -75.39022 | 38262 ft | 416 kts | 244° |
| 2026-05-07 08:26 | 71.71440 | -75.64163 | 38236 ft | 417 kts | 243° |
| 2026-05-07 08:26 | 71.68962 | -75.80956 | 38255 ft | 421 kts | 243° |
| 2026-05-07 08:27 | 71.66456 | -75.97816 | 38251 ft | 422 kts | 243° |
| 2026-05-07 08:27 | 71.63936 | -76.14636 | 38238 ft | 422 kts | 243° |
| 2026-05-07 08:28 | 71.61403 | -76.31392 | 38240 ft | 421 kts | 243° |
| 2026-05-07 08:28 | 71.58876 | -76.47965 | 38237 ft | 421 kts | 242° |
| 2026-05-07 08:29 | 71.56314 | -76.64624 | 38231 ft | 421 kts | 242° |
| 2026-05-07 08:29 | 71.53740 | -76.81225 | 38233 ft | 421 kts | 242° |
| 2026-05-07 08:30 | 71.51151 | -76.97786 | 38237 ft | 421 kts | 242° |
| 2026-05-07 08:30 | 71.48551 | -77.14281 | 38225 ft | 421 kts | 242° |
| 2026-05-07 08:31 | 71.45926 | -77.30795 | 38221 ft | 424 kts | 241° |
| 2026-05-07 08:31 | 71.43265 | -77.47400 | 38231 ft | 426 kts | 241° |
| 2026-05-07 08:32 | 71.40586 | -77.63989 | 38205 ft | 426 kts | 241° |
| 2026-05-07 08:32 | 71.37891 | -77.80542 | 38199 ft | 426 kts | 241° |
| 2026-05-07 08:33 | 71.35184 | -77.97024 | 38196 ft | 426 kts | 240° |
| 2026-05-07 08:33 | 71.32462 | -78.13469 | 38182 ft | 426 kts | 240° |
| 2026-05-07 08:34 | 71.29740 | -78.29778 | 38190 ft | 426 kts | 240° |
| 2026-05-07 08:34 | 71.26986 | -78.46153 | 38190 ft | 426 kts | 240° |
| 2026-05-07 08:35 | 71.24221 | -78.62460 | 38185 ft | 426 kts | 240° |
| 2026-05-07 08:35 | 71.21439 | -78.78736 | 38163 ft | 426 kts | 240° |
| 2026-05-07 08:36 | 71.18631 | -78.95032 | 38166 ft | 430 kts | 239° |
| 2026-05-07 08:36 | 71.15795 | -79.11362 | 38161 ft | 431 kts | 239° |
| 2026-05-07 08:37 | 71.12942 | -79.27666 | 38165 ft | 431 kts | 239° |
| 2026-05-07 08:37 | 71.10098 | -79.43791 | 38166 ft | 431 kts | 239° |
| 2026-05-07 08:38 | 71.07218 | -79.59993 | 38162 ft | 431 kts | 239° |
| 2026-05-07 08:38 | 71.04327 | -79.76131 | 38161 ft | 431 kts | 239° |
| 2026-05-07 08:39 | 71.01421 | -79.92224 | 38163 ft | 431 kts | 239° |
| 2026-05-07 08:39 | 70.98479 | -80.08232 | 38163 ft | 430 kts | 238° |
| 2026-05-07 08:40 | 70.95377 | -80.23856 | 38166 ft | 429 kts | 236° |
| 2026-05-07 08:40 | 70.92237 | -80.39351 | 38166 ft | 429 kts | 236° |
| 2026-05-07 08:41 | 70.89105 | -80.54849 | 38162 ft | 429 kts | 237° |
| 2026-05-07 08:41 | 70.85968 | -80.70354 | 38162 ft | 429 kts | 237° |
| 2026-05-07 08:42 | 70.82827 | -80.85800 | 38167 ft | 429 kts | 236° |
| 2026-05-07 08:42 | 70.79672 | -81.01191 | 38168 ft | 429 kts | 236° |
| 2026-05-07 08:43 | 70.76503 | -81.16538 | 38165 ft | 429 kts | 236° |
| 2026-05-07 08:43 | 70.73342 | -81.31735 | 38176 ft | 428 kts | 236° |
| 2026-05-07 08:44 | 70.70158 | -81.46933 | 38171 ft | 428 kts | 236° |
| 2026-05-07 08:44 | 70.66958 | -81.62094 | 38164 ft | 429 kts | 236° |
| 2026-05-07 08:45 | 70.63716 | -81.77342 | 38168 ft | 433 kts | 235° |
| 2026-05-07 08:45 | 70.60453 | -81.92592 | 38169 ft | 433 kts | 235° |
| 2026-05-07 08:46 | 70.57177 | -82.07793 | 38166 ft | 433 kts | 235° |
| 2026-05-07 08:46 | 70.53889 | -82.22941 | 38177 ft | 433 kts | 235° |
| 2026-05-07 08:47 | 70.50589 | -82.38034 | 38175 ft | 433 kts | 235° |
| 2026-05-07 08:47 | 70.47279 | -82.53067 | 38175 ft | 432 kts | 235° |
| 2026-05-07 08:48 | 70.43963 | -82.68025 | 38174 ft | 432 kts | 234° |
| 2026-05-07 08:48 | 70.40658 | -82.82829 | 38175 ft | 432 kts | 234° |
| 2026-05-07 08:49 | 70.37308 | -82.97728 | 38176 ft | 435 kts | 234° |
| 2026-05-07 08:49 | 70.33917 | -83.12704 | 38170 ft | 437 kts | 234° |
| 2026-05-07 08:50 | 70.30510 | -83.27653 | 38174 ft | 437 kts | 234° |
| 2026-05-07 08:50 | 70.27091 | -83.42548 | 38177 ft | 437 kts | 234° |
| 2026-05-07 08:51 | 70.23681 | -83.57301 | 38175 ft | 437 kts | 233° |
| 2026-05-07 08:51 | 70.20246 | -83.72061 | 38176 ft | 436 kts | 233° |
| 2026-05-07 08:52 | 70.16789 | -83.86813 | 38176 ft | 436 kts | 233° |
| 2026-05-07 08:52 | 70.13324 | -84.01501 | 38177 ft | 436 kts | 233° |
| 2026-05-07 08:53 | 70.09851 | -84.16120 | 38147 ft | 437 kts | 233° |
| 2026-05-07 08:53 | 70.06350 | -84.30758 | 38165 ft | 440 kts | 233° |
| 2026-05-07 08:54 | 70.03411 | -84.42971 | 38161 ft | 441 kts | 233° |
| 2026-05-07 08:54 | 69.99866 | -84.57610 | 38167 ft | 441 kts | 233° |
| 2026-05-07 08:55 | 69.96309 | -84.72199 | 38153 ft | 441 kts | 232° |
| 2026-05-07 08:55 | 69.92745 | -84.86717 | 38148 ft | 441 kts | 232° |
| 2026-05-07 08:56 | 69.89164 | -85.01209 | 38147 ft | 440 kts | 232° |
| 2026-05-07 08:56 | 69.85576 | -85.15633 | 38137 ft | 440 kts | 232° |
| 2026-05-07 08:57 | 69.82002 | -85.29903 | 38137 ft | 440 kts | 232° |
| 2026-05-07 08:57 | 69.78388 | -85.44237 | 38135 ft | 442 kts | 232° |
| 2026-05-07 08:58 | 69.74743 | -85.58598 | 38134 ft | 444 kts | 232° |
| 2026-05-07 08:58 | 69.71072 | -85.72967 | 38131 ft | 445 kts | 231° |
| 2026-05-07 08:59 | 69.67386 | -85.87301 | 38148 ft | 445 kts | 231° |
| 2026-05-07 08:59 | 69.63695 | -86.01558 | 38134 ft | 445 kts | 231° |
| 2026-05-07 09:00 | 69.60009 | -86.15702 | 38124 ft | 445 kts | 231° |
| 2026-05-07 09:00 | 69.56291 | -86.29876 | 38125 ft | 445 kts | 231° |
| 2026-05-07 09:01 | 69.52561 | -86.44003 | 38133 ft | 445 kts | 231° |
| 2026-05-07 09:01 | 69.48818 | -86.58085 | 38126 ft | 445 kts | 231° |
| 2026-05-07 09:02 | 69.45055 | -86.72149 | 38124 ft | 448 kts | 231° |
| 2026-05-07 09:02 | 69.41254 | -86.86263 | 38129 ft | 449 kts | 230° |
| 2026-05-07 09:03 | 69.37441 | -87.00332 | 38135 ft | 449 kts | 230° |
| 2026-05-07 09:03 | 69.33618 | -87.14346 | 38124 ft | 449 kts | 230° |
| 2026-05-07 09:04 | 69.29784 | -87.28309 | 38132 ft | 449 kts | 230° |
| 2026-05-07 09:04 | 69.25962 | -87.42139 | 38133 ft | 449 kts | 230° |
| 2026-05-07 09:05 | 69.22101 | -87.56018 | 38130 ft | 449 kts | 230° |
| 2026-05-07 09:05 | 69.18234 | -87.69833 | 38134 ft | 449 kts | 230° |
| 2026-05-07 09:06 | 69.14347 | -87.83630 | 38141 ft | 451 kts | 230° |
| 2026-05-07 09:06 | 69.10430 | -87.97438 | 38128 ft | 452 kts | 229° |
| 2026-05-07 09:07 | 69.06499 | -88.11207 | 38152 ft | 452 kts | 228° |
| 2026-05-07 09:07 | 69.02573 | -88.24882 | 38151 ft | 451 kts | 229° |
| 2026-05-07 09:08 | 68.98636 | -88.38511 | 38149 ft | 451 kts | 228° |
| 2026-05-07 09:08 | 68.94691 | -88.52082 | 38165 ft | 451 kts | 229° |
| 2026-05-07 09:09 | 68.90733 | -88.65603 | 38161 ft | 451 kts | 229° |
| 2026-05-07 09:09 | 68.86764 | -88.79073 | 38163 ft | 451 kts | 229° |
| 2026-05-07 09:10 | 68.82776 | -88.92524 | 38163 ft | 453 kts | 228° |
| 2026-05-07 09:10 | 68.78760 | -89.05997 | 38161 ft | 455 kts | 229° |
| 2026-05-07 09:11 | 68.74740 | -89.19384 | 38160 ft | 456 kts | 228° |
| 2026-05-07 09:11 | 68.70687 | -89.32801 | 38165 ft | 456 kts | 227° |
| 2026-05-07 09:12 | 68.66615 | -89.46196 | 38162 ft | 456 kts | 227° |
| 2026-05-07 09:12 | 68.62565 | -89.59448 | 38157 ft | 456 kts | 227° |
| 2026-05-07 09:13 | 68.58454 | -89.72809 | 38156 ft | 456 kts | 227° |
| 2026-05-07 09:13 | 68.54384 | -89.85944 | 38156 ft | 455 kts | 227° |
| 2026-05-07 09:14 | 68.50273 | -89.99134 | 38161 ft | 458 kts | 227° |
| 2026-05-07 09:14 | 68.46270 | -90.12766 | 38178 ft | 462 kts | 231° |
| 2026-05-07 09:15 | 68.42462 | -90.26869 | 38170 ft | 463 kts | 232° |
| 2026-05-07 09:15 | 68.38635 | -90.40889 | 38185 ft | 462 kts | 231° |
| 2026-05-07 09:16 | 68.34752 | -90.54788 | 38184 ft | 462 kts | 230° |
| 2026-05-07 09:16 | 68.30837 | -90.68610 | 38176 ft | 462 kts | 230° |
| 2026-05-07 09:17 | 68.26912 | -90.82383 | 38170 ft | 462 kts | 230° |
| 2026-05-07 09:17 | 68.22978 | -90.96107 | 38184 ft | 462 kts | 229° |
| 2026-05-07 09:18 | 68.19068 | -91.09670 | 38163 ft | 461 kts | 230° |
| 2026-05-07 09:18 | 68.15113 | -91.23291 | 38146 ft | 464 kts | 230° |
| 2026-05-07 09:19 | 68.11125 | -91.36955 | 38145 ft | 466 kts | 230° |
| 2026-05-07 09:19 | 68.07115 | -91.50613 | 38146 ft | 466 kts | 230° |
| 2026-05-07 09:20 | 68.03090 | -91.64216 | 38138 ft | 466 kts | 229° |
| 2026-05-07 09:20 | 67.99055 | -91.77772 | 38140 ft | 466 kts | 229° |
| 2026-05-07 09:21 | 67.95015 | -91.91259 | 38149 ft | 466 kts | 230° |
| 2026-05-07 09:21 | 67.90972 | -92.04687 | 38130 ft | 464 kts | 229° |
| 2026-05-07 09:22 | 67.86926 | -92.18028 | 38128 ft | 463 kts | 229° |
| 2026-05-07 09:22 | 67.82900 | -92.31220 | 38143 ft | 463 kts | 229° |
| 2026-05-07 09:23 | 67.78840 | -92.44461 | 38142 ft | 464 kts | 228° |
| 2026-05-07 09:23 | 67.74763 | -92.57670 | 38131 ft | 464 kts | 229° |
| 2026-05-07 09:24 | 67.70680 | -92.70811 | 38149 ft | 463 kts | 229° |
| 2026-05-07 09:24 | 67.66584 | -92.83915 | 38150 ft | 463 kts | 229° |
| 2026-05-07 09:25 | 67.62488 | -92.96937 | 38137 ft | 462 kts | 229° |
| 2026-05-07 09:25 | 67.58388 | -93.09893 | 38152 ft | 461 kts | 229° |
| 2026-05-07 09:26 | 67.54279 | -93.22804 | 38152 ft | 461 kts | 228° |
| 2026-05-07 09:26 | 67.50158 | -93.35675 | 38167 ft | 462 kts | 228° |
| 2026-05-07 09:27 | 67.46010 | -93.48562 | 38149 ft | 466 kts | 227° |
| 2026-05-07 09:28 | 67.39728 | -93.67927 | 38167 ft | 467 kts | 228° |
| 2026-05-07 09:28 | 67.35559 | -93.80679 | 38152 ft | 465 kts | 228° |
| 2026-05-07 09:29 | 67.31369 | -93.93418 | 38142 ft | 464 kts | 227° |
| 2026-05-07 09:29 | 67.27173 | -94.06101 | 38158 ft | 464 kts | 227° |
| 2026-05-07 09:30 | 67.22960 | -94.18758 | 38158 ft | 464 kts | 227° |
| 2026-05-07 09:30 | 67.18738 | -94.31375 | 38148 ft | 464 kts | 227° |
| 2026-05-07 09:31 | 67.14513 | -94.43931 | 38142 ft | 465 kts | 227° |
| 2026-05-07 09:31 | 67.10252 | -94.56511 | 38143 ft | 467 kts | 227° |
| 2026-05-07 09:32 | 67.06001 | -94.68999 | 38132 ft | 467 kts | 227° |
| 2026-05-07 09:32 | 67.01719 | -94.81501 | 38139 ft | 466 kts | 227° |
| 2026-05-07 09:33 | 66.97430 | -94.93944 | 38156 ft | 466 kts | 227° |
| 2026-05-07 09:33 | 66.93124 | -95.06346 | 38157 ft | 466 kts | 227° |
| 2026-05-07 09:34 | 66.88818 | -95.18710 | 38155 ft | 466 kts | 226° |
| 2026-05-07 09:34 | 66.84504 | -95.31026 | 38159 ft | 466 kts | 227° |
| 2026-05-07 09:35 | 66.80172 | -95.43304 | 38156 ft | 467 kts | 226° |
| 2026-05-07 09:35 | 66.75811 | -95.55602 | 38149 ft | 470 kts | 226° |
| 2026-05-07 09:36 | 66.71433 | -95.67881 | 38149 ft | 470 kts | 226° |
| 2026-05-07 09:36 | 66.67040 | -95.80130 | 38159 ft | 470 kts | 226° |
| 2026-05-07 09:37 | 66.62672 | -95.92239 | 38152 ft | 470 kts | 226° |
| 2026-05-07 09:37 | 66.58263 | -96.04391 | 38159 ft | 470 kts | 226° |
| 2026-05-07 09:38 | 66.53849 | -96.16487 | 38163 ft | 470 kts | 226° |
| 2026-05-07 09:38 | 66.49416 | -96.28566 | 38153 ft | 471 kts | 226° |
| 2026-05-07 09:39 | 66.44971 | -96.40611 | 38163 ft | 472 kts | 226° |
| 2026-05-07 09:39 | 66.40503 | -96.52652 | 38162 ft | 473 kts | 225° |
| 2026-05-07 09:40 | 66.36012 | -96.64686 | 38157 ft | 474 kts | 226° |
| 2026-05-07 09:40 | 66.31519 | -96.76663 | 38161 ft | 473 kts | 225° |
| 2026-05-07 09:41 | 66.27016 | -96.88587 | 38163 ft | 473 kts | 226° |
| 2026-05-07 09:41 | 66.22498 | -97.00486 | 38168 ft | 474 kts | 225° |
| 2026-05-07 09:42 | 66.17964 | -97.12366 | 38166 ft | 475 kts | 226° |
| 2026-05-07 09:42 | 66.14178 | -97.22232 | 38165 ft | 475 kts | 225° |
| 2026-05-07 09:43 | 66.08881 | -97.35960 | 38171 ft | 475 kts | 225° |
| 2026-05-07 09:43 | 66.05058 | -97.45816 | 38166 ft | 475 kts | 225° |
| 2026-05-07 09:44 | 66.00483 | -97.57551 | 38170 ft | 476 kts | 225° |
| 2026-05-07 09:44 | 65.95912 | -97.69202 | 38171 ft | 476 kts | 225° |
| 2026-05-07 09:45 | 65.91312 | -97.80872 | 38167 ft | 476 kts | 225° |
| 2026-05-07 09:45 | 65.86709 | -97.92483 | 38176 ft | 475 kts | 225° |
| 2026-05-07 09:46 | 65.82089 | -98.04076 | 38176 ft | 475 kts | 225° |
| 2026-05-07 09:46 | 65.77462 | -98.15619 | 38171 ft | 476 kts | 225° |
| 2026-05-07 09:47 | 65.72823 | -98.27127 | 38170 ft | 476 kts | 224° |
| 2026-05-07 09:47 | 65.68203 | -98.38528 | 38172 ft | 477 kts | 224° |
| 2026-05-07 09:48 | 65.63533 | -98.49990 | 38174 ft | 478 kts | 225° |
| 2026-05-07 09:48 | 65.58851 | -98.61420 | 38172 ft | 478 kts | 225° |
| 2026-05-07 09:49 | 65.54159 | -98.72810 | 38173 ft | 478 kts | 224° |
| 2026-05-07 09:49 | 65.49460 | -98.84159 | 38181 ft | 478 kts | 224° |
| 2026-05-07 09:50 | 65.44754 | -98.95461 | 38179 ft | 478 kts | 224° |
| 2026-05-07 09:50 | 65.40028 | -99.06751 | 38185 ft | 478 kts | 224° |
| 2026-05-07 09:51 | 65.35333 | -99.17907 | 38187 ft | 478 kts | 224° |
| 2026-05-07 09:51 | 65.30571 | -99.29159 | 38178 ft | 478 kts | 224° |
| 2026-05-07 09:52 | 65.25823 | -99.40321 | 38188 ft | 479 kts | 224° |
| 2026-05-07 09:52 | 65.21089 | -99.51395 | 38185 ft | 480 kts | 224° |
| 2026-05-07 09:53 | 65.16311 | -99.62508 | 38190 ft | 480 kts | 224° |
| 2026-05-07 09:53 | 65.11533 | -99.73562 | 38189 ft | 479 kts | 224° |
| 2026-05-07 09:54 | 65.06745 | -99.84582 | 38189 ft | 479 kts | 224° |
| 2026-05-07 09:54 | 65.01952 | -99.95554 | 38191 ft | 479 kts | 224° |
| 2026-05-07 09:55 | 64.97213 | -100.06597 | 38192 ft | 478 kts | 227° |
| 2026-05-07 09:55 | 64.92719 | -100.18159 | 38200 ft | 478 kts | 228° |
| 2026-05-07 09:56 | 64.88255 | -100.29750 | 38200 ft | 478 kts | 228° |
| 2026-05-07 09:56 | 64.83737 | -100.41244 | 38194 ft | 478 kts | 227° |
| 2026-05-07 09:57 | 64.79222 | -100.52563 | 38206 ft | 478 kts | 227° |
| 2026-05-07 09:57 | 64.74669 | -100.63889 | 38201 ft | 478 kts | 227° |
| 2026-05-07 09:58 | 64.70092 | -100.75222 | 38209 ft | 479 kts | 227° |
| 2026-05-07 09:58 | 64.65509 | -100.86519 | 38208 ft | 479 kts | 227° |
| 2026-05-07 09:59 | 64.60920 | -100.97774 | 38208 ft | 479 kts | 227° |
| 2026-05-07 09:59 | 64.56321 | -101.08992 | 38222 ft | 479 kts | 227° |
| 2026-05-07 10:00 | 64.51715 | -101.20170 | 38211 ft | 479 kts | 227° |
| 2026-05-07 10:00 | 64.47093 | -101.31325 | 38217 ft | 479 kts | 227° |
| 2026-05-07 10:01 | 64.42454 | -101.42466 | 38222 ft | 479 kts | 227° |
| 2026-05-07 10:01 | 64.37844 | -101.53480 | 38222 ft | 479 kts | 227° |
| 2026-05-07 10:02 | 64.33197 | -101.64524 | 38224 ft | 479 kts | 226° |
| 2026-05-07 10:02 | 64.28542 | -101.75532 | 38225 ft | 479 kts | 226° |
| 2026-05-07 10:03 | 64.23878 | -101.86501 | 38222 ft | 479 kts | 226° |
| 2026-05-07 10:03 | 64.19202 | -101.97444 | 38216 ft | 479 kts | 226° |
| 2026-05-07 10:04 | 64.14516 | -102.08355 | 38227 ft | 480 kts | 226° |
| 2026-05-07 10:04 | 64.09825 | -102.19221 | 38228 ft | 479 kts | 226° |
| 2026-05-07 10:05 | 64.05132 | -102.30036 | 38223 ft | 479 kts | 226° |
| 2026-05-07 10:05 | 64.00420 | -102.40841 | 38226 ft | 480 kts | 226° |
| 2026-05-07 10:06 | 63.95739 | -102.51520 | 38229 ft | 480 kts | 226° |
| 2026-05-07 10:06 | 63.91017 | -102.62239 | 38213 ft | 480 kts | 226° |
| 2026-05-07 10:07 | 63.86282 | -102.72933 | 38222 ft | 480 kts | 226° |
| 2026-05-07 10:07 | 63.81536 | -102.83601 | 38222 ft | 480 kts | 226° |
| 2026-05-07 10:08 | 63.76784 | -102.94225 | 38221 ft | 480 kts | 226° |
| 2026-05-07 10:08 | 63.72020 | -103.04823 | 38216 ft | 480 kts | 226° |
| 2026-05-07 10:09 | 63.67255 | -103.15372 | 38208 ft | 480 kts | 226° |
| 2026-05-07 10:09 | 63.62482 | -103.25887 | 38204 ft | 480 kts | 226° |
| 2026-05-07 10:10 | 63.57696 | -103.36375 | 38206 ft | 481 kts | 226° |
| 2026-05-07 10:10 | 63.52925 | -103.46783 | 38203 ft | 481 kts | 226° |
| 2026-05-07 10:11 | 63.48117 | -103.57217 | 38197 ft | 481 kts | 226° |
| 2026-05-07 10:11 | 63.43304 | -103.67611 | 38194 ft | 481 kts | 226° |
| 2026-05-07 10:12 | 63.38483 | -103.77971 | 38197 ft | 481 kts | 225° |
| 2026-05-07 10:12 | 63.33652 | -103.88304 | 38186 ft | 481 kts | 226° |
| 2026-05-07 10:13 | 63.28803 | -103.98624 | 38182 ft | 482 kts | 226° |
| 2026-05-07 10:13 | 63.23978 | -104.08841 | 38184 ft | 482 kts | 225° |
| 2026-05-07 10:14 | 63.19114 | -104.19090 | 38183 ft | 482 kts | 225° |
| 2026-05-07 10:14 | 63.14245 | -104.29300 | 38186 ft | 482 kts | 225° |
| 2026-05-07 10:15 | 63.09360 | -104.39495 | 38183 ft | 482 kts | 225° |
| 2026-05-07 10:15 | 63.04472 | -104.49647 | 38184 ft | 482 kts | 225° |
| 2026-05-07 10:16 | 62.99582 | -104.59754 | 38175 ft | 482 kts | 225° |
| 2026-05-07 10:16 | 62.94675 | -104.69846 | 38179 ft | 483 kts | 225° |
| 2026-05-07 10:17 | 62.89763 | -104.79900 | 38177 ft | 483 kts | 225° |
| 2026-05-07 10:17 | 62.84844 | -104.89921 | 38178 ft | 483 kts | 225° |
| 2026-05-07 10:18 | 62.79913 | -104.99918 | 38175 ft | 483 kts | 225° |
| 2026-05-07 10:18 | 62.74977 | -105.09878 | 38169 ft | 483 kts | 225° |
| 2026-05-07 10:19 | 62.70026 | -105.19821 | 38170 ft | 484 kts | 225° |
| 2026-05-07 10:19 | 62.65102 | -105.29662 | 38168 ft | 484 kts | 225° |
| 2026-05-07 10:20 | 62.60143 | -105.39525 | 38168 ft | 484 kts | 225° |
| 2026-05-07 10:20 | 62.55161 | -105.49388 | 38163 ft | 484 kts | 225° |
| 2026-05-07 10:21 | 62.50180 | -105.59204 | 38160 ft | 484 kts | 224° |
| 2026-05-07 10:21 | 62.45182 | -105.69004 | 38160 ft | 484 kts | 225° |
| 2026-05-07 10:22 | 62.40189 | -105.78750 | 38150 ft | 484 kts | 225° |
| 2026-05-07 10:22 | 62.35187 | -105.88468 | 38152 ft | 484 kts | 224° |
| 2026-05-07 10:23 | 62.30181 | -105.98149 | 38148 ft | 484 kts | 224° |
| 2026-05-07 10:23 | 62.25171 | -106.07792 | 38149 ft | 484 kts | 224° |
| 2026-05-07 10:24 | 62.20151 | -106.17409 | 38118 ft | 484 kts | 224° |
| 2026-05-07 10:24 | 62.15127 | -106.26987 | 38138 ft | 483 kts | 224° |
| 2026-05-07 10:25 | 62.10126 | -106.36480 | 38141 ft | 484 kts | 224° |
| 2026-05-07 10:25 | 62.05085 | -106.46006 | 38135 ft | 484 kts | 224° |
| 2026-05-07 10:26 | 62.00039 | -106.55496 | 38132 ft | 484 kts | 224° |
| 2026-05-07 10:26 | 61.94980 | -106.64965 | 38127 ft | 484 kts | 224° |
| 2026-05-07 10:27 | 61.89920 | -106.74394 | 38124 ft | 483 kts | 224° |
| 2026-05-07 10:27 | 61.84871 | -106.83758 | 38124 ft | 482 kts | 224° |
| 2026-05-07 10:28 | 61.79818 | -106.93090 | 38125 ft | 481 kts | 224° |
| 2026-05-07 10:28 | 61.74774 | -107.02361 | 38127 ft | 482 kts | 224° |
| 2026-05-07 10:29 | 61.69703 | -107.11641 | 38115 ft | 483 kts | 224° |
| 2026-05-07 10:29 | 61.64624 | -107.20895 | 38118 ft | 483 kts | 224° |
| 2026-05-07 10:30 | 61.57027 | -107.34652 | 38108 ft | 481 kts | 224° |
| 2026-05-07 10:30 | 61.51960 | -107.43779 | 38116 ft | 480 kts | 223° |
| 2026-05-07 10:31 | 61.47704 | -107.51416 | 38107 ft | 480 kts | 223° |
| 2026-05-07 10:31 | 61.42658 | -107.60432 | 38106 ft | 480 kts | 223° |
| 2026-05-07 10:32 | 61.37538 | -107.69538 | 38108 ft | 480 kts | 223° |
| 2026-05-07 10:32 | 61.32475 | -107.78504 | 38115 ft | 481 kts | 223° |
| 2026-05-07 10:33 | 61.27376 | -107.87493 | 38105 ft | 479 kts | 223° |
| 2026-05-07 10:33 | 61.22286 | -107.96429 | 38109 ft | 479 kts | 223° |
| 2026-05-07 10:34 | 61.17188 | -108.05337 | 38107 ft | 479 kts | 223° |
| 2026-05-07 10:34 | 61.12089 | -108.14211 | 38101 ft | 479 kts | 223° |
| 2026-05-07 10:35 | 61.06973 | -108.23073 | 38098 ft | 479 kts | 223° |
| 2026-05-07 10:35 | 61.01865 | -108.31882 | 38090 ft | 478 kts | 223° |
| 2026-05-07 10:36 | 60.96760 | -108.40649 | 38096 ft | 477 kts | 223° |
| 2026-05-07 10:36 | 60.91658 | -108.49374 | 38093 ft | 477 kts | 223° |
| 2026-05-07 10:37 | 60.86542 | -108.58086 | 38091 ft | 478 kts | 223° |
| 2026-05-07 10:37 | 60.81422 | -108.66769 | 38092 ft | 478 kts | 223° |
| 2026-05-07 10:38 | 60.76327 | -108.75370 | 38092 ft | 478 kts | 223° |
| 2026-05-07 10:38 | 60.71202 | -108.83981 | 38092 ft | 476 kts | 223° |
| 2026-05-07 10:39 | 60.66086 | -108.92543 | 38093 ft | 474 kts | 222° |
| 2026-05-07 10:39 | 60.60970 | -109.01072 | 38097 ft | 475 kts | 222° |
| 2026-05-07 10:40 | 60.55851 | -109.09570 | 38101 ft | 474 kts | 222° |
| 2026-05-07 10:40 | 60.50762 | -109.17982 | 38097 ft | 475 kts | 222° |
| 2026-05-07 10:41 | 60.45614 | -109.26453 | 38072 ft | 475 kts | 222° |
| 2026-05-07 10:41 | 60.40483 | -109.34859 | 38100 ft | 473 kts | 222° |
| 2026-05-07 10:42 | 60.35365 | -109.43211 | 38078 ft | 472 kts | 222° |
| 2026-05-07 10:42 | 60.30246 | -109.51533 | 38094 ft | 472 kts | 222° |
| 2026-05-07 10:43 | 60.25117 | -109.59836 | 38077 ft | 473 kts | 222° |
| 2026-05-07 10:43 | 60.19986 | -109.68105 | 38083 ft | 472 kts | 222° |
| 2026-05-07 10:44 | 60.14852 | -109.76347 | 38073 ft | 472 kts | 222° |
| 2026-05-07 10:44 | 60.09744 | -109.84512 | 38057 ft | 472 kts | 221° |
| 2026-05-07 10:45 | 60.04606 | -109.92692 | 38077 ft | 472 kts | 221° |
| 2026-05-07 10:45 | 59.99452 | -110.00865 | 38084 ft | 472 kts | 221° |
| 2026-05-07 10:46 | 59.94146 | -110.08639 | 38071 ft | 474 kts | 218° |
| 2026-05-07 10:46 | 59.88712 | -110.16109 | 38052 ft | 474 kts | 218° |
| 2026-05-07 10:47 | 59.83302 | -110.23580 | 38072 ft | 473 kts | 218° |
| 2026-05-07 10:47 | 59.77921 | -110.31079 | 38073 ft | 472 kts | 218° |
| 2026-05-07 10:48 | 59.72547 | -110.38575 | 38064 ft | 473 kts | 218° |
| 2026-05-07 10:48 | 59.67158 | -110.46066 | 38065 ft | 473 kts | 218° |
| 2026-05-07 10:49 | 59.61795 | -110.53484 | 38050 ft | 473 kts | 218° |
| 2026-05-07 10:49 | 59.56389 | -110.60930 | 38030 ft | 473 kts | 218° |
| 2026-05-07 10:50 | 59.50993 | -110.68332 | 38054 ft | 472 kts | 218° |
| 2026-05-07 10:50 | 59.45592 | -110.75712 | 38045 ft | 472 kts | 218° |
| 2026-05-07 10:51 | 59.40198 | -110.83053 | 38044 ft | 472 kts | 218° |
| 2026-05-07 10:51 | 59.34794 | -110.90379 | 38033 ft | 472 kts | 218° |
| 2026-05-07 10:52 | 59.29384 | -110.97685 | 38029 ft | 473 kts | 218° |
| 2026-05-07 10:52 | 59.23995 | -111.04934 | 38016 ft | 473 kts | 218° |
| 2026-05-07 10:53 | 59.18579 | -111.12189 | 38020 ft | 472 kts | 218° |
| 2026-05-07 10:53 | 59.13157 | -111.19425 | 38010 ft | 471 kts | 218° |
| 2026-05-07 10:54 | 59.07735 | -111.26634 | 38009 ft | 471 kts | 218° |
| 2026-05-07 10:54 | 59.02313 | -111.33812 | 37993 ft | 472 kts | 218° |
| 2026-05-07 10:55 | 58.96890 | -111.40966 | 37976 ft | 472 kts | 218° |
| 2026-05-07 10:55 | 58.91455 | -111.48107 | 37975 ft | 472 kts | 218° |
| 2026-05-07 10:56 | 58.86019 | -111.55222 | 37967 ft | 471 kts | 218° |
| 2026-05-07 10:56 | 58.80623 | -111.62257 | 37980 ft | 471 kts | 218° |
| 2026-05-07 10:57 | 58.75185 | -111.69321 | 37971 ft | 471 kts | 218° |
| 2026-05-07 10:57 | 58.69750 | -111.76353 | 37972 ft | 471 kts | 218° |
| 2026-05-07 10:58 | 58.64303 | -111.83373 | 37973 ft | 471 kts | 218° |
| 2026-05-07 10:58 | 58.58860 | -111.90362 | 37950 ft | 469 kts | 218° |
| 2026-05-07 10:59 | 58.53465 | -111.97263 | 37956 ft | 469 kts | 218° |
| 2026-05-07 10:59 | 58.48027 | -112.04195 | 37944 ft | 470 kts | 218° |
| 2026-05-07 11:00 | 58.42576 | -112.11115 | 37944 ft | 470 kts | 218° |
| 2026-05-07 11:00 | 58.37123 | -112.18012 | 37933 ft | 470 kts | 218° |
| 2026-05-07 11:01 | 58.31661 | -112.24894 | 37913 ft | 469 kts | 218° |
| 2026-05-07 11:01 | 58.26239 | -112.31695 | 37923 ft | 465 kts | 218° |
| 2026-05-07 11:02 | 58.20847 | -112.38438 | 37918 ft | 464 kts | 218° |
| 2026-05-07 11:02 | 58.15443 | -112.45176 | 37918 ft | 466 kts | 218° |
| 2026-05-07 11:03 | 58.10051 | -112.51874 | 37899 ft | 467 kts | 218° |
| 2026-05-07 11:03 | 58.04614 | -112.58597 | 37891 ft | 467 kts | 218° |
| 2026-05-07 11:04 | 57.99176 | -112.65295 | 37888 ft | 464 kts | 218° |
| 2026-05-07 11:04 | 57.93781 | -112.71914 | 37886 ft | 461 kts | 218° |
| 2026-05-07 11:05 | 57.88407 | -112.78490 | 37892 ft | 460 kts | 218° |
| 2026-05-07 11:05 | 57.83034 | -112.85044 | 37893 ft | 460 kts | 218° |
| 2026-05-07 11:06 | 57.77650 | -112.91585 | 37875 ft | 462 kts | 218° |
| 2026-05-07 11:06 | 57.72244 | -112.98128 | 37888 ft | 463 kts | 218° |
| 2026-05-07 11:07 | 57.66844 | -113.04636 | 37952 ft | 461 kts | 218° |
| 2026-05-07 11:07 | 57.64152 | -113.07873 | 38133 ft | 462 kts | 218° |
| 2026-05-07 11:07 | 57.61475 | -113.11088 | 38346 ft | 463 kts | 218° |
| 2026-05-07 11:08 | 57.58763 | -113.14339 | 38591 ft | 463 kts | 217° |
| 2026-05-07 11:08 | 57.56054 | -113.17580 | 38797 ft | 464 kts | 217° |
| 2026-05-07 11:08 | 57.53338 | -113.20823 | 38964 ft | 464 kts | 217° |
| 2026-05-07 11:08 | 57.50619 | -113.24062 | 39165 ft | 464 kts | 217° |
| 2026-05-07 11:09 | 57.47901 | -113.27296 | 39345 ft | 465 kts | 217° |
| 2026-05-07 11:09 | 57.45172 | -113.30536 | 39535 ft | 465 kts | 217° |
| 2026-05-07 11:09 | 57.42444 | -113.33770 | 39720 ft | 465 kts | 217° |
| 2026-05-07 11:09 | 57.39709 | -113.37007 | 39835 ft | 467 kts | 217° |
| 2026-05-07 11:10 | 57.34207 | -113.43502 | 39871 ft | 468 kts | 217° |
| 2026-05-07 11:10 | 57.28723 | -113.49944 | 39859 ft | 466 kts | 217° |
| 2026-05-07 11:11 | 57.23253 | -113.56353 | 39867 ft | 465 kts | 217° |
| 2026-05-07 11:11 | 57.17781 | -113.62744 | 39867 ft | 466 kts | 217° |
| 2026-05-07 11:12 | 57.12296 | -113.69124 | 39858 ft | 466 kts | 216° |
| 2026-05-07 11:12 | 57.06814 | -113.75479 | 39860 ft | 466 kts | 216° |
| 2026-05-07 11:13 | 57.01368 | -113.81770 | 39852 ft | 466 kts | 217° |
| 2026-05-07 11:13 | 56.95865 | -113.88105 | 39857 ft | 467 kts | 216° |
| 2026-05-07 11:14 | 56.90358 | -113.94422 | 39856 ft | 467 kts | 216° |
| 2026-05-07 11:14 | 56.84842 | -114.00726 | 39857 ft | 467 kts | 216° |
| 2026-05-07 11:15 | 56.79327 | -114.07007 | 39844 ft | 467 kts | 216° |
| 2026-05-07 11:15 | 56.73831 | -114.13242 | 39857 ft | 465 kts | 216° |
| 2026-05-07 11:16 | 56.68339 | -114.19453 | 39847 ft | 464 kts | 216° |
| 2026-05-07 11:16 | 56.62852 | -114.25640 | 39848 ft | 464 kts | 216° |
| 2026-05-07 11:17 | 56.57346 | -114.31825 | 39851 ft | 465 kts | 216° |
| 2026-05-07 11:17 | 56.51872 | -114.37953 | 39847 ft | 465 kts | 216° |
| 2026-05-07 11:18 | 56.46366 | -114.44094 | 39845 ft | 464 kts | 216° |
| 2026-05-07 11:18 | 56.40876 | -114.50194 | 39839 ft | 462 kts | 216° |
| 2026-05-07 11:19 | 56.35398 | -114.56264 | 39839 ft | 462 kts | 216° |
| 2026-05-07 11:19 | 56.29907 | -114.62328 | 39835 ft | 462 kts | 216° |
| 2026-05-07 11:20 | 56.24415 | -114.68371 | 39834 ft | 462 kts | 216° |
| 2026-05-07 11:20 | 56.19841 | -114.73389 | 39816 ft | 462 kts | 216° |
| 2026-05-07 11:21 | 56.14359 | -114.79382 | 39829 ft | 460 kts | 216° |
| 2026-05-07 11:21 | 56.08893 | -114.85338 | 39831 ft | 459 kts | 216° |
| 2026-05-07 11:22 | 56.03436 | -114.91266 | 39829 ft | 459 kts | 216° |
| 2026-05-07 11:22 | 55.97968 | -114.97185 | 39827 ft | 459 kts | 215° |
| 2026-05-07 11:23 | 55.92494 | -115.03091 | 39826 ft | 459 kts | 215° |
| 2026-05-07 11:23 | 55.87021 | -115.08978 | 39828 ft | 459 kts | 215° |
| 2026-05-07 11:24 | 55.81558 | -115.14832 | 39831 ft | 458 kts | 215° |
| 2026-05-07 11:24 | 55.76098 | -115.20664 | 39830 ft | 458 kts | 215° |
| 2026-05-07 11:25 | 55.70631 | -115.26484 | 39836 ft | 458 kts | 215° |
| 2026-05-07 11:25 | 55.65169 | -115.32279 | 39834 ft | 458 kts | 215° |
| 2026-05-07 11:26 | 55.59732 | -115.38030 | 39816 ft | 458 kts | 214° |
| 2026-05-07 11:26 | 55.54273 | -115.43786 | 39831 ft | 457 kts | 214° |
| 2026-05-07 11:27 | 55.48808 | -115.49529 | 39831 ft | 457 kts | 214° |
| 2026-05-07 11:27 | 55.43345 | -115.55251 | 39829 ft | 457 kts | 214° |
| 2026-05-07 11:28 | 55.37873 | -115.60963 | 39830 ft | 457 kts | 214° |
| 2026-05-07 11:28 | 55.32400 | -115.66657 | 39826 ft | 457 kts | 214° |
| 2026-05-07 11:29 | 55.26920 | -115.72342 | 39822 ft | 457 kts | 214° |
| 2026-05-07 11:29 | 55.21458 | -115.77989 | 39821 ft | 456 kts | 214° |
| 2026-05-07 11:30 | 55.15988 | -115.83624 | 39821 ft | 456 kts | 214° |
| 2026-05-07 11:30 | 55.10516 | -115.89246 | 39818 ft | 456 kts | 214° |
| 2026-05-07 11:31 | 55.05074 | -115.94820 | 39821 ft | 456 kts | 214° |
| 2026-05-07 11:31 | 54.99597 | -116.00411 | 39815 ft | 456 kts | 214° |
| 2026-05-07 11:32 | 54.91595 | -116.09257 | 39823 ft | 452 kts | 217° |
| 2026-05-07 11:33 | 54.86337 | -116.15265 | 39827 ft | 452 kts | 217° |
| 2026-05-07 11:33 | 54.81055 | -116.21206 | 39832 ft | 453 kts | 216° |
| 2026-05-07 11:34 | 54.75759 | -116.27096 | 39823 ft | 453 kts | 216° |
| 2026-05-07 11:34 | 54.70478 | -116.32943 | 39828 ft | 453 kts | 216° |
| 2026-05-07 11:35 | 54.65174 | -116.38796 | 39832 ft | 452 kts | 216° |
| 2026-05-07 11:35 | 54.59877 | -116.44624 | 39832 ft | 451 kts | 216° |
| 2026-05-07 11:36 | 54.54574 | -116.50443 | 39826 ft | 451 kts | 216° |
| 2026-05-07 11:36 | 54.49268 | -116.56248 | 39829 ft | 452 kts | 216° |
| 2026-05-07 11:37 | 54.43959 | -116.62038 | 39817 ft | 451 kts | 216° |
| 2026-05-07 11:37 | 54.38691 | -116.67765 | 39817 ft | 450 kts | 216° |
| 2026-05-07 11:38 | 54.33393 | -116.73506 | 39821 ft | 450 kts | 216° |
| 2026-05-07 11:38 | 54.28092 | -116.79233 | 39821 ft | 450 kts | 216° |
| 2026-05-07 11:39 | 54.22796 | -116.84937 | 39821 ft | 450 kts | 216° |
| 2026-05-07 11:39 | 54.17475 | -116.90648 | 39819 ft | 450 kts | 216° |
| 2026-05-07 11:40 | 54.12165 | -116.96334 | 39821 ft | 450 kts | 215° |
| 2026-05-07 11:40 | 54.06854 | -117.02003 | 39822 ft | 450 kts | 215° |
| 2026-05-07 11:41 | 54.01542 | -117.07655 | 39820 ft | 450 kts | 215° |
| 2026-05-07 11:41 | 53.96213 | -117.13308 | 39826 ft | 451 kts | 215° |
| 2026-05-07 11:42 | 53.90885 | -117.18942 | 39825 ft | 451 kts | 215° |
| 2026-05-07 11:42 | 53.85598 | -117.24515 | 39818 ft | 450 kts | 215° |
| 2026-05-07 11:43 | 53.80274 | -117.30110 | 39818 ft | 450 kts | 215° |
| 2026-05-07 11:43 | 53.74954 | -117.35685 | 39819 ft | 450 kts | 215° |
| 2026-05-07 11:44 | 53.69632 | -117.41245 | 39829 ft | 450 kts | 215° |
| 2026-05-07 11:44 | 53.64303 | -117.46797 | 39835 ft | 450 kts | 215° |
| 2026-05-07 11:45 | 53.58973 | -117.52333 | 39833 ft | 449 kts | 215° |
| 2026-05-07 11:45 | 53.53663 | -117.57830 | 39832 ft | 448 kts | 215° |
| 2026-05-07 11:46 | 53.48389 | -117.63274 | 39843 ft | 447 kts | 215° |
| 2026-05-07 11:46 | 53.43078 | -117.68740 | 39851 ft | 448 kts | 215° |
| 2026-05-07 11:47 | 53.37766 | -117.74192 | 39852 ft | 448 kts | 215° |
| 2026-05-07 11:47 | 53.32454 | -117.79629 | 39865 ft | 449 kts | 214° |
| 2026-05-07 11:48 | 53.27106 | -117.85087 | 39866 ft | 451 kts | 214° |
| 2026-05-07 11:48 | 53.21754 | -117.90529 | 39876 ft | 450 kts | 215° |
| 2026-05-07 11:49 | 53.16398 | -117.95960 | 39883 ft | 450 kts | 214° |
| 2026-05-07 11:49 | 53.11050 | -118.01365 | 39887 ft | 450 kts | 215° |
| 2026-05-07 11:50 | 53.05691 | -118.06765 | 39885 ft | 451 kts | 215° |
| 2026-05-07 11:50 | 53.00286 | -118.12201 | 39900 ft | 455 kts | 215° |
| 2026-05-07 11:51 | 52.94861 | -118.17638 | 39900 ft | 456 kts | 214° |
| 2026-05-07 11:51 | 52.89432 | -118.23064 | 39920 ft | 456 kts | 215° |
| 2026-05-07 11:52 | 52.83999 | -118.28475 | 39916 ft | 455 kts | 215° |
| 2026-05-07 11:52 | 52.78560 | -118.33874 | 39934 ft | 455 kts | 215° |
| 2026-05-07 11:53 | 52.73179 | -118.39202 | 39933 ft | 452 kts | 215° |
| 2026-05-07 11:53 | 52.67789 | -118.44527 | 39937 ft | 452 kts | 215° |
| 2026-05-07 11:54 | 52.62390 | -118.49845 | 39933 ft | 452 kts | 215° |
| 2026-05-07 11:54 | 52.56986 | -118.55157 | 39942 ft | 452 kts | 215° |
| 2026-05-07 11:55 | 52.51587 | -118.60446 | 39936 ft | 452 kts | 215° |
| 2026-05-07 11:55 | 52.46178 | -118.65722 | 39943 ft | 452 kts | 215° |
| 2026-05-07 11:56 | 52.40783 | -118.70970 | 39943 ft | 451 kts | 215° |
| 2026-05-07 11:56 | 52.35410 | -118.76182 | 39950 ft | 452 kts | 215° |
| 2026-05-07 11:57 | 52.30001 | -118.81417 | 39950 ft | 452 kts | 215° |
| 2026-05-07 11:57 | 52.24580 | -118.86649 | 39955 ft | 452 kts | 215° |
| 2026-05-07 11:58 | 52.19162 | -118.91861 | 39950 ft | 452 kts | 215° |
| 2026-05-07 11:58 | 52.13738 | -118.97063 | 39948 ft | 453 kts | 216° |
| 2026-05-07 11:59 | 52.08313 | -119.02250 | 39947 ft | 452 kts | 215° |
| 2026-05-07 11:59 | 52.02883 | -119.07432 | 39958 ft | 452 kts | 215° |
| 2026-05-07 12:00 | 51.97495 | -119.12560 | 39946 ft | 452 kts | 216° |
| 2026-05-07 12:00 | 51.92064 | -119.17715 | 39942 ft | 452 kts | 216° |
| 2026-05-07 12:01 | 51.86636 | -119.22847 | 39944 ft | 452 kts | 215° |
| 2026-05-07 12:01 | 51.81213 | -119.27962 | 39934 ft | 451 kts | 215° |
| 2026-05-07 12:02 | 51.75787 | -119.33067 | 39924 ft | 451 kts | 216° |
| 2026-05-07 12:02 | 51.70358 | -119.38157 | 39922 ft | 451 kts | 216° |
| 2026-05-07 12:03 | 51.64931 | -119.43234 | 39923 ft | 451 kts | 216° |
| 2026-05-07 12:03 | 51.59501 | -119.48300 | 39916 ft | 451 kts | 216° |
| 2026-05-07 12:04 | 51.54100 | -119.53325 | 39913 ft | 451 kts | 216° |
| 2026-05-07 12:04 | 51.48671 | -119.58359 | 39908 ft | 451 kts | 215° |
| 2026-05-07 12:05 | 51.43226 | -119.63396 | 39915 ft | 451 kts | 216° |
| 2026-05-07 12:05 | 51.37789 | -119.68411 | 39908 ft | 451 kts | 216° |
| 2026-05-07 12:06 | 51.32350 | -119.73413 | 39906 ft | 451 kts | 216° |
| 2026-05-07 12:06 | 51.26912 | -119.78402 | 39912 ft | 451 kts | 216° |
| 2026-05-07 12:07 | 51.21477 | -119.83375 | 39914 ft | 451 kts | 215° |
| 2026-05-07 12:07 | 51.16039 | -119.88336 | 39904 ft | 451 kts | 216° |
| 2026-05-07 12:08 | 51.11507 | -119.92460 | 39905 ft | 451 kts | 216° |
| 2026-05-07 12:08 | 51.06055 | -119.97408 | 39896 ft | 451 kts | 216° |
| 2026-05-07 12:09 | 51.00594 | -120.02351 | 39903 ft | 451 kts | 216° |
| 2026-05-07 12:09 | 50.95132 | -120.07282 | 39893 ft | 451 kts | 216° |
| 2026-05-07 12:10 | 50.89711 | -120.12163 | 39894 ft | 451 kts | 216° |
| 2026-05-07 12:10 | 50.84247 | -120.17069 | 39884 ft | 451 kts | 216° |
| 2026-05-07 12:11 | 50.78787 | -120.21959 | 39882 ft | 451 kts | 216° |
| 2026-05-07 12:11 | 50.73313 | -120.26848 | 39879 ft | 452 kts | 216° |
| 2026-05-07 12:12 | 50.67841 | -120.31719 | 39844 ft | 451 kts | 216° |
| 2026-05-07 12:12 | 50.62381 | -120.36566 | 39888 ft | 450 kts | 216° |
| 2026-05-07 12:13 | 50.56911 | -120.41412 | 39891 ft | 450 kts | 216° |
| 2026-05-07 12:13 | 50.51446 | -120.46243 | 39891 ft | 450 kts | 216° |
| 2026-05-07 12:14 | 50.46014 | -120.51029 | 39897 ft | 451 kts | 216° |
| 2026-05-07 12:14 | 50.40541 | -120.55837 | 39891 ft | 451 kts | 216° |
| 2026-05-07 12:15 | 50.35065 | -120.60637 | 39907 ft | 451 kts | 216° |
| 2026-05-07 12:15 | 50.29574 | -120.65437 | 39907 ft | 451 kts | 216° |
| 2026-05-07 12:16 | 50.24086 | -120.70219 | 39921 ft | 451 kts | 216° |
| 2026-05-07 12:16 | 50.18600 | -120.74989 | 39846 ft | 451 kts | 216° |
| 2026-05-07 12:16 | 50.15876 | -120.77348 | 39589 ft | 444 kts | 217° |
| 2026-05-07 12:17 | 50.13194 | -120.79663 | 39356 ft | 439 kts | 217° |
| 2026-05-07 12:17 | 50.10530 | -120.81965 | 39126 ft | 437 kts | 217° |
| 2026-05-07 12:17 | 50.07868 | -120.84268 | 38897 ft | 438 kts | 218° |
| 2026-05-07 12:17 | 50.05210 | -120.86567 | 38681 ft | 435 kts | 218° |
| 2026-05-07 12:18 | 50.02574 | -120.88838 | 38273 ft | 432 kts | 218° |
| 2026-05-07 12:18 | 49.99953 | -120.91095 | 37833 ft | 429 kts | 218° |
| 2026-05-07 12:18 | 49.97378 | -120.93325 | 37403 ft | 425 kts | 219° |
| 2026-05-07 12:18 | 49.95030 | -120.95951 | 37100 ft | 408 kts | 231° |
| 2026-05-07 12:19 | 49.93155 | -120.99131 | 36716 ft | 392 kts | 243° |
| 2026-05-07 12:19 | 49.91690 | -121.02631 | 36318 ft | 384 kts | 246° |
| 2026-05-07 12:19 | 49.90327 | -121.06175 | 35928 ft | 381 kts | 247° |
| 2026-05-07 12:19 | 49.88986 | -121.09700 | 35558 ft | 379 kts | 247° |
| 2026-05-07 12:20 | 49.87647 | -121.13224 | 35106 ft | 380 kts | 247° |
| 2026-05-07 12:20 | 49.86303 | -121.16757 | 34612 ft | 380 kts | 246° |
| 2026-05-07 12:20 | 49.84956 | -121.20287 | 34062 ft | 382 kts | 246° |
| 2026-05-07 12:20 | 49.83597 | -121.23844 | 33400 ft | 385 kts | 246° |
| 2026-05-07 12:21 | 49.82227 | -121.27417 | 32739 ft | 386 kts | 246° |
| 2026-05-07 12:21 | 49.80855 | -121.30994 | 32084 ft | 386 kts | 245° |
| 2026-05-07 12:21 | 49.79485 | -121.34570 | 31413 ft | 387 kts | 245° |
| 2026-05-07 12:21 | 49.78107 | -121.38153 | 30909 ft | 386 kts | 245° |
| 2026-05-07 12:22 | 49.76727 | -121.41731 | 30469 ft | 387 kts | 245° |
| 2026-05-07 12:22 | 49.75349 | -121.45300 | 29954 ft | 386 kts | 245° |
| 2026-05-07 12:22 | 49.73976 | -121.48850 | 29434 ft | 383 kts | 245° |
| 2026-05-07 12:22 | 49.72614 | -121.52370 | 28957 ft | 379 kts | 244° |
| 2026-05-07 12:23 | 49.71266 | -121.55847 | 28446 ft | 376 kts | 245° |
| 2026-05-07 12:23 | 49.69931 | -121.59289 | 27975 ft | 372 kts | 244° |
| 2026-05-07 12:23 | 49.68621 | -121.62660 | 27518 ft | 369 kts | 244° |
| 2026-05-07 12:23 | 49.67301 | -121.66055 | 27047 ft | 367 kts | 244° |
| 2026-05-07 12:24 | 49.65991 | -121.69420 | 26553 ft | 365 kts | 244° |
| 2026-05-07 12:24 | 49.64685 | -121.72772 | 26060 ft | 364 kts | 244° |
| 2026-05-07 12:24 | 49.63382 | -121.76112 | 25591 ft | 362 kts | 244° |
| 2026-05-07 12:24 | 49.62087 | -121.79430 | 25139 ft | 361 kts | 244° |
| 2026-05-07 12:25 | 49.60792 | -121.82744 | 24647 ft | 359 kts | 244° |
| 2026-05-07 12:25 | 49.59506 | -121.86029 | 24180 ft | 358 kts | 244° |
| 2026-05-07 12:25 | 49.58221 | -121.89311 | 23694 ft | 357 kts | 243° |
| 2026-05-07 12:25 | 49.56935 | -121.92583 | 23166 ft | 355 kts | 243° |
| 2026-05-07 12:26 | 49.55660 | -121.95822 | 22705 ft | 353 kts | 243° |
| 2026-05-07 12:26 | 49.54390 | -121.99045 | 22221 ft | 351 kts | 243° |
| 2026-05-07 12:26 | 49.53129 | -122.02246 | 21754 ft | 348 kts | 242° |
| 2026-05-07 12:26 | 49.51872 | -122.05425 | 21296 ft | 346 kts | 243° |
| 2026-05-07 12:27 | 49.50619 | -122.08566 | 20835 ft | 345 kts | 242° |
| 2026-05-07 12:27 | 49.49357 | -122.11699 | 20356 ft | 344 kts | 242° |
| 2026-05-07 12:27 | 49.48094 | -122.14835 | 19866 ft | 345 kts | 242° |
| 2026-05-07 12:27 | 49.46833 | -122.17962 | 19367 ft | 345 kts | 242° |
| 2026-05-07 12:28 | 49.45600 | -122.21071 | 18885 ft | 345 kts | 242° |
| 2026-05-07 12:28 | 49.44356 | -122.24214 | 18380 ft | 343 kts | 242° |
| 2026-05-07 12:28 | 49.43119 | -122.27334 | 17772 ft | 342 kts | 242° |
| 2026-05-07 12:28 | 49.41882 | -122.30449 | 17191 ft | 341 kts | 242° |
| 2026-05-07 12:29 | 49.40653 | -122.33535 | 16682 ft | 337 kts | 242° |
| 2026-05-07 12:29 | 49.39432 | -122.36580 | 16181 ft | 333 kts | 240° |
| 2026-05-07 12:29 | 49.38163 | -122.39542 | 15712 ft | 332 kts | 239° |
| 2026-05-07 12:29 | 49.36880 | -122.42494 | 15183 ft | 331 kts | 239° |
| 2026-05-07 12:30 | 49.35606 | -122.45417 | 14732 ft | 329 kts | 239° |
| 2026-05-07 12:30 | 49.34346 | -122.48340 | 14243 ft | 328 kts | 239° |
| 2026-05-07 12:30 | 49.33093 | -122.51253 | 13744 ft | 327 kts | 239° |
| 2026-05-07 12:30 | 49.31842 | -122.54148 | 13235 ft | 325 kts | 239° |
| 2026-05-07 12:31 | 49.30597 | -122.57034 | 12758 ft | 322 kts | 239° |
| 2026-05-07 12:31 | 49.29367 | -122.59885 | 12297 ft | 320 kts | 239° |
| 2026-05-07 12:31 | 49.28144 | -122.62718 | 11804 ft | 318 kts | 239° |
| 2026-05-07 12:31 | 49.26925 | -122.65537 | 11347 ft | 316 kts | 239° |
| 2026-05-07 12:32 | 49.25731 | -122.68297 | 11157 ft | 304 kts | 239° |
| 2026-05-07 12:32 | 49.24797 | -122.71101 | 11025 ft | 289 kts | 253° |
| 2026-05-07 12:32 | 49.24538 | -122.74067 | 10901 ft | 276 kts | 273° |
| 2026-05-07 12:32 | 49.24789 | -122.76931 | 10770 ft | 267 kts | 279° |
| 2026-05-07 12:33 | 49.25469 | -122.82537 | 10066 ft | 269 kts | 280° |
| 2026-05-07 12:33 | 49.25801 | -122.85304 | 9778 ft | 266 kts | 279° |
| 2026-05-07 12:33 | 49.26125 | -122.88043 | 9626 ft | 257 kts | 279° |
| 2026-05-07 12:34 | 49.26438 | -122.90707 | 9459 ft | 251 kts | 279° |
| 2026-05-07 12:34 | 49.26743 | -122.93319 | 9203 ft | 248 kts | 279° |
| 2026-05-07 12:34 | 49.27047 | -122.95903 | 8953 ft | 245 kts | 279° |
| 2026-05-07 12:34 | 49.27342 | -122.98462 | 8731 ft | 242 kts | 279° |
| 2026-05-07 12:35 | 49.27631 | -123.00972 | 8557 ft | 237 kts | 279° |
| 2026-05-07 12:35 | 49.27914 | -123.03431 | 8324 ft | 233 kts | 279° |
| 2026-05-07 12:35 | 49.28202 | -123.05847 | 7872 ft | 229 kts | 279° |
| 2026-05-07 12:35 | 49.28485 | -123.08236 | 7484 ft | 225 kts | 279° |
| 2026-05-07 12:36 | 49.28760 | -123.10570 | 7174 ft | 220 kts | 279° |
| 2026-05-07 12:36 | 49.29028 | -123.12851 | 6883 ft | 215 kts | 279° |
| 2026-05-07 12:36 | 49.29295 | -123.15113 | 6597 ft | 218 kts | 279° |
| 2026-05-07 12:36 | 49.29564 | -123.17410 | 6436 ft | 217 kts | 279° |
| 2026-05-07 12:37 | 49.29830 | -123.19675 | 6267 ft | 215 kts | 280° |
| 2026-05-07 12:37 | 49.30097 | -123.21923 | 6041 ft | 217 kts | 279° |
| 2026-05-07 12:37 | 49.30364 | -123.24208 | 5840 ft | 216 kts | 279° |
| 2026-05-07 12:37 | 49.30625 | -123.26456 | 5662 ft | 213 kts | 279° |
| 2026-05-07 12:38 | 49.30872 | -123.28711 | 5354 ft | 216 kts | 279° |
| 2026-05-07 12:38 | 49.31116 | -123.30990 | 5107 ft | 218 kts | 279° |
| 2026-05-07 12:38 | 49.31361 | -123.33268 | 4941 ft | 220 kts | 278° |
| 2026-05-07 12:38 | 49.31610 | -123.35588 | 4755 ft | 221 kts | 278° |
| 2026-05-07 12:39 | 49.31860 | -123.37915 | 4584 ft | 222 kts | 278° |
| 2026-05-07 12:39 | 49.32111 | -123.40248 | 4413 ft | 221 kts | 278° |
| 2026-05-07 12:39 | 49.32344 | -123.42567 | 4302 ft | 219 kts | 276° |
| 2026-05-07 12:39 | 49.32241 | -123.44873 | 4090 ft | 217 kts | 255° |
| 2026-05-07 12:40 | 49.31518 | -123.46897 | 3784 ft | 221 kts | 226° |
| 2026-05-07 12:40 | 49.30157 | -123.47956 | 3517 ft | 224 kts | 191° |
| 2026-05-07 12:40 | 49.28616 | -123.48280 | 3258 ft | 223 kts | 188° |
| 2026-05-07 12:40 | 49.27084 | -123.48557 | 3039 ft | 220 kts | 184° |
| 2026-05-07 12:41 | 49.25562 | -123.48519 | 2979 ft | 220 kts | 168° |
| 2026-05-07 12:41 | 49.24279 | -123.47355 | 2982 ft | 217 kts | 130° |
| 2026-05-07 12:41 | 49.23485 | -123.45407 | 2982 ft | 217 kts | 111° |
| 2026-05-07 12:41 | 49.23129 | -123.43173 | 2992 ft | 216 kts | 97° |
| 2026-05-07 12:42 | 49.22908 | -123.40949 | 2832 ft | 213 kts | 99° |
| 2026-05-07 12:42 | 49.22640 | -123.38723 | 2530 ft | 211 kts | 102° |
| 2026-05-07 12:42 | 49.22389 | -123.36564 | 2214 ft | 201 kts | 101° |
| 2026-05-07 12:42 | 49.22157 | -123.34507 | 1936 ft | 191 kts | 101° |
| 2026-05-07 12:43 | 49.21936 | -123.32570 | 1730 ft | 179 kts | 101° |
| 2026-05-07 12:43 | 49.21726 | -123.30727 | 1470 ft | 174 kts | 101° |
| 2026-05-07 12:43 | 49.21523 | -123.28934 | 1225 ft | 168 kts | 103° |
| 2026-05-07 12:43 | 49.21329 | -123.27231 | 1003 ft | 156 kts | 102° |
| 2026-05-07 12:44 | 49.21149 | -123.25651 | 784 ft | 146 kts | 101° |
| 2026-05-07 12:44 | 49.20979 | -123.24161 | 593 ft | 139 kts | 100° |
| 2026-05-07 12:44 | 49.20818 | -123.22741 | 405 ft | 135 kts | 100° |
| 2026-05-07 12:44 | 49.20662 | -123.21354 | 236 ft | 130 kts | 101° |
| 2026-05-07 12:45 | 49.20506 | -123.19986 | 67 ft | 132 kts | 99° |
| 2026-05-07 12:45 | 49.20356 | -123.18675 | 31 ft | 111 kts | 100° |
| 2026-05-07 12:45 | 49.20255 | -123.17784 | 29 ft | 59 kts | 99° |
| 2026-05-07 12:45 | 49.20202 | -123.17316 | 29 ft | 41 kts | 100° |
| 2026-05-07 12:46 | 49.20151 | -123.17010 | 29 ft | 19 kts | 116° |
| 2026-05-07 12:46 | 49.20072 | -123.16833 | 29 ft | 21 kts | 129° |
| 2026-05-07 12:46 | 49.19987 | -123.16676 | 29 ft | 15 kts | 129° |
| 2026-05-07 12:46 | 49.19962 | -123.16630 | 29 ft | 2 kts | 131° |
| 2026-05-07 12:47 | 49.19946 | -123.16622 | 29 ft | 2 kts | 186° |
| 2026-05-07 12:47 | 49.19924 | -123.16652 | 29 ft | 6 kts | 243° |
| 2026-05-07 12:47 | 49.19923 | -123.16757 | 29 ft | 14 kts | 277° |
| 2026-05-07 12:47 | 49.19941 | -123.16920 | 29 ft | 17 kts | 279° |
| 2026-05-07 12:48 | 49.19963 | -123.17115 | 29 ft | 20 kts | 280° |
| 2026-05-07 12:48 | 49.19989 | -123.17345 | 29 ft | 23 kts | 279° |
| 2026-05-07 12:48 | 49.20019 | -123.17598 | 29 ft | 23 kts | 280° |
| 2026-05-07 12:48 | 49.20049 | -123.17850 | 29 ft | 26 kts | 280° |
| 2026-05-07 12:49 | 49.20074 | -123.18079 | 29 ft | 13 kts | 279° |
| 2026-05-07 12:49 | 49.20092 | -123.18237 | 29 ft | 17 kts | 279° |
| 2026-05-07 12:49 | 49.20111 | -123.18407 | 29 ft | 10 kts | 279° |
| 2026-05-07 12:49 | 49.20096 | -123.18499 | 29 ft | 8 kts | 219° |
| 2026-05-07 12:50 | 49.20048 | -123.18483 | 29 ft | 7 kts | 128° |
| 2026-05-07 12:50 | 49.20037 | -123.18397 | 29 ft | 10 kts | 99° |
| 2026-05-07 12:50 | 49.20024 | -123.18285 | 29 ft | 12 kts | 99° |
| 2026-05-07 12:50 | 49.20009 | -123.18148 | 29 ft | 14 kts | 99° |
| 2026-05-07 12:51 | 49.19993 | -123.18004 | 29 ft | 12 kts | 99° |
| 2026-05-07 12:51 | 49.19984 | -123.17930 | 29 ft | 1 kts | 102° |
| 2026-05-07 12:51 | 49.19979 | -123.17918 | 29 ft | 2 kts | 124° |